<?xml version="1.0" encoding="UTF-8" standalone="no" ?>
<gpx xmlns="http://www.topografix.com/GPX/1/1" xmlns:xsi="http://www.w3.org/2001/XMLSchema-instance" xsi:schemaLocation="http://www.topografix.com/GPX/1/1 http://www.topografix.com/GPX/1/1/gpx.xsd" version="1.1" creator="VisuGPX - https://www.visugpx.com">
  <metadata>
    <name>Les Lacs de Graulhet</name>
    <desc><![CDATA[Départ lac de Nabeillou, circuit valloné dans la campagne graulhétoise.]]></desc>
  </metadata>
  <trk>
    <name><![CDATA[2017-01-18 15:17:19]]></name>
    <trkseg>
      <trkpt lat="43.75829" lon="1.97063">
        <ele>176.54</ele>
        <time>2017-01-18T09:30:07Z</time>
      </trkpt>
      <trkpt lat="43.75829" lon="1.97062">
        <ele>179.42</ele>
        <time>2017-01-18T09:30:31Z</time>
      </trkpt>
      <trkpt lat="43.7583" lon="1.9706">
        <ele>179.42</ele>
        <time>2017-01-18T09:30:55Z</time>
      </trkpt>
      <trkpt lat="43.75832" lon="1.97061">
        <ele>178.94</ele>
        <time>2017-01-18T09:31:15Z</time>
      </trkpt>
      <trkpt lat="43.75832" lon="1.97063">
        <ele>177.5</ele>
        <time>2017-01-18T09:31:32Z</time>
      </trkpt>
      <trkpt lat="43.75831" lon="1.97061">
        <ele>177.02</ele>
        <time>2017-01-18T09:31:53Z</time>
      </trkpt>
      <trkpt lat="43.75834" lon="1.97064">
        <ele>178.46</ele>
        <time>2017-01-18T09:32:16Z</time>
      </trkpt>
      <trkpt lat="43.75834" lon="1.97066">
        <ele>178.94</ele>
        <time>2017-01-18T09:32:29Z</time>
      </trkpt>
      <trkpt lat="43.75831" lon="1.97074">
        <ele>178.94</ele>
        <time>2017-01-18T09:32:51Z</time>
      </trkpt>
      <trkpt lat="43.75829" lon="1.97064">
        <ele>183.75</ele>
        <time>2017-01-18T09:33:05Z</time>
      </trkpt>
      <trkpt lat="43.7583" lon="1.97063">
        <ele>182.31</ele>
        <time>2017-01-18T09:33:23Z</time>
      </trkpt>
      <trkpt lat="43.75831" lon="1.9706">
        <ele>181.83</ele>
        <time>2017-01-18T09:33:28Z</time>
      </trkpt>
      <trkpt lat="43.75826" lon="1.97036">
        <ele>180.38</ele>
        <time>2017-01-18T09:33:46Z</time>
      </trkpt>
      <trkpt lat="43.75822" lon="1.97012">
        <ele>179.42</ele>
        <time>2017-01-18T09:34:05Z</time>
      </trkpt>
      <trkpt lat="43.75822" lon="1.9701">
        <ele>180.38</ele>
        <time>2017-01-18T09:34:07Z</time>
      </trkpt>
      <trkpt lat="43.75826" lon="1.96983">
        <ele>178.46</ele>
        <time>2017-01-18T09:34:27Z</time>
      </trkpt>
      <trkpt lat="43.75826" lon="1.96979">
        <ele>177.98</ele>
        <time>2017-01-18T09:34:30Z</time>
      </trkpt>
      <trkpt lat="43.75825" lon="1.96971">
        <ele>177.5</ele>
        <time>2017-01-18T09:34:35Z</time>
      </trkpt>
      <trkpt lat="43.75825" lon="1.96939">
        <ele>177.98</ele>
        <time>2017-01-18T09:34:55Z</time>
      </trkpt>
      <trkpt lat="43.75824" lon="1.96909">
        <ele>178.46</ele>
        <time>2017-01-18T09:35:15Z</time>
      </trkpt>
      <trkpt lat="43.75821" lon="1.96888">
        <ele>178.46</ele>
        <time>2017-01-18T09:35:34Z</time>
      </trkpt>
      <trkpt lat="43.75822" lon="1.96873">
        <ele>177.5</ele>
        <time>2017-01-18T09:35:50Z</time>
      </trkpt>
      <trkpt lat="43.75821" lon="1.96843">
        <ele>176.54</ele>
        <time>2017-01-18T09:36:09Z</time>
      </trkpt>
      <trkpt lat="43.75815" lon="1.96829">
        <ele>175.1</ele>
        <time>2017-01-18T09:36:20Z</time>
      </trkpt>
      <trkpt lat="43.75796" lon="1.96828">
        <ele>174.14</ele>
        <time>2017-01-18T09:36:37Z</time>
      </trkpt>
      <trkpt lat="43.75776" lon="1.96827">
        <ele>175.58</ele>
        <time>2017-01-18T09:36:56Z</time>
      </trkpt>
      <trkpt lat="43.75752" lon="1.96831">
        <ele>178.46</ele>
        <time>2017-01-18T09:37:16Z</time>
      </trkpt>
      <trkpt lat="43.75733" lon="1.96832">
        <ele>179.42</ele>
        <time>2017-01-18T09:37:33Z</time>
      </trkpt>
      <trkpt lat="43.75707" lon="1.96831">
        <ele>179.9</ele>
        <time>2017-01-18T09:37:53Z</time>
      </trkpt>
      <trkpt lat="43.75685" lon="1.96827">
        <ele>179.42</ele>
        <time>2017-01-18T09:38:13Z</time>
      </trkpt>
      <trkpt lat="43.75666" lon="1.96829">
        <ele>178.46</ele>
        <time>2017-01-18T09:38:30Z</time>
      </trkpt>
      <trkpt lat="43.75639" lon="1.96828">
        <ele>180.87</ele>
        <time>2017-01-18T09:38:51Z</time>
      </trkpt>
      <trkpt lat="43.75618" lon="1.96826">
        <ele>184.23</ele>
        <time>2017-01-18T09:39:11Z</time>
      </trkpt>
      <trkpt lat="43.75597" lon="1.96829">
        <ele>186.63</ele>
        <time>2017-01-18T09:39:31Z</time>
      </trkpt>
      <trkpt lat="43.75579" lon="1.96837">
        <ele>187.59</ele>
        <time>2017-01-18T09:39:49Z</time>
      </trkpt>
      <trkpt lat="43.7556" lon="1.96846">
        <ele>186.15</ele>
        <time>2017-01-18T09:40:07Z</time>
      </trkpt>
      <trkpt lat="43.75543" lon="1.96856">
        <ele>184.23</ele>
        <time>2017-01-18T09:40:26Z</time>
      </trkpt>
      <trkpt lat="43.75524" lon="1.9687">
        <ele>182.31</ele>
        <time>2017-01-18T09:40:47Z</time>
      </trkpt>
      <trkpt lat="43.75509" lon="1.96882">
        <ele>181.83</ele>
        <time>2017-01-18T09:41:04Z</time>
      </trkpt>
      <trkpt lat="43.7549" lon="1.96895">
        <ele>180.38</ele>
        <time>2017-01-18T09:41:23Z</time>
      </trkpt>
      <trkpt lat="43.75468" lon="1.96905">
        <ele>180.87</ele>
        <time>2017-01-18T09:41:40Z</time>
      </trkpt>
      <trkpt lat="43.75455" lon="1.96912">
        <ele>183.75</ele>
        <time>2017-01-18T09:41:55Z</time>
      </trkpt>
      <trkpt lat="43.75438" lon="1.96918">
        <ele>184.23</ele>
        <time>2017-01-18T09:42:12Z</time>
      </trkpt>
      <trkpt lat="43.75418" lon="1.9692">
        <ele>184.71</ele>
        <time>2017-01-18T09:42:32Z</time>
      </trkpt>
      <trkpt lat="43.75396" lon="1.96927">
        <ele>183.27</ele>
        <time>2017-01-18T09:42:52Z</time>
      </trkpt>
      <trkpt lat="43.75386" lon="1.96943">
        <ele>178.46</ele>
        <time>2017-01-18T09:43:08Z</time>
      </trkpt>
      <trkpt lat="43.75372" lon="1.96955">
        <ele>175.1</ele>
        <time>2017-01-18T09:43:24Z</time>
      </trkpt>
      <trkpt lat="43.75355" lon="1.96959">
        <ele>171.73</ele>
        <time>2017-01-18T09:43:41Z</time>
      </trkpt>
      <trkpt lat="43.75352" lon="1.96958">
        <ele>170.77</ele>
        <time>2017-01-18T09:43:45Z</time>
      </trkpt>
      <trkpt lat="43.75343" lon="1.96958">
        <ele>174.14</ele>
        <time>2017-01-18T09:43:49Z</time>
      </trkpt>
      <trkpt lat="43.75326" lon="1.96975">
        <ele>176.06</ele>
        <time>2017-01-18T09:44:05Z</time>
      </trkpt>
      <trkpt lat="43.7532" lon="1.9699">
        <ele>175.1</ele>
        <time>2017-01-18T09:44:22Z</time>
      </trkpt>
      <trkpt lat="43.75318" lon="1.97008">
        <ele>176.06</ele>
        <time>2017-01-18T09:44:38Z</time>
      </trkpt>
      <trkpt lat="43.75318" lon="1.97022">
        <ele>177.02</ele>
        <time>2017-01-18T09:44:52Z</time>
      </trkpt>
      <trkpt lat="43.75313" lon="1.97035">
        <ele>179.9</ele>
        <time>2017-01-18T09:45:07Z</time>
      </trkpt>
      <trkpt lat="43.75308" lon="1.97054">
        <ele>185.67</ele>
        <time>2017-01-18T09:45:25Z</time>
      </trkpt>
      <trkpt lat="43.753" lon="1.97072">
        <ele>190</ele>
        <time>2017-01-18T09:45:41Z</time>
      </trkpt>
      <trkpt lat="43.75297" lon="1.97093">
        <ele>190.48</ele>
        <time>2017-01-18T09:45:55Z</time>
      </trkpt>
      <trkpt lat="43.75292" lon="1.9711">
        <ele>189.52</ele>
        <time>2017-01-18T09:46:09Z</time>
      </trkpt>
      <trkpt lat="43.75282" lon="1.97125">
        <ele>191.44</ele>
        <time>2017-01-18T09:46:26Z</time>
      </trkpt>
      <trkpt lat="43.75273" lon="1.97144">
        <ele>196.25</ele>
        <time>2017-01-18T09:46:43Z</time>
      </trkpt>
      <trkpt lat="43.75263" lon="1.97144">
        <ele>198.17</ele>
        <time>2017-01-18T09:46:59Z</time>
      </trkpt>
      <trkpt lat="43.75266" lon="1.9712">
        <ele>202.01</ele>
        <time>2017-01-18T09:47:17Z</time>
      </trkpt>
      <trkpt lat="43.75256" lon="1.97103">
        <ele>205.38</ele>
        <time>2017-01-18T09:47:33Z</time>
      </trkpt>
      <trkpt lat="43.75251" lon="1.97087">
        <ele>206.82</ele>
        <time>2017-01-18T09:47:49Z</time>
      </trkpt>
      <trkpt lat="43.75242" lon="1.97074">
        <ele>208.26</ele>
        <time>2017-01-18T09:48:04Z</time>
      </trkpt>
      <trkpt lat="43.7523" lon="1.97065">
        <ele>211.15</ele>
        <time>2017-01-18T09:48:21Z</time>
      </trkpt>
      <trkpt lat="43.75217" lon="1.97064">
        <ele>211.63</ele>
        <time>2017-01-18T09:48:39Z</time>
      </trkpt>
      <trkpt lat="43.75203" lon="1.97078">
        <ele>210.67</ele>
        <time>2017-01-18T09:48:57Z</time>
      </trkpt>
      <trkpt lat="43.7519" lon="1.97094">
        <ele>215.47</ele>
        <time>2017-01-18T09:49:12Z</time>
      </trkpt>
      <trkpt lat="43.75183" lon="1.97102">
        <ele>217.4</ele>
        <time>2017-01-18T09:49:30Z</time>
      </trkpt>
      <trkpt lat="43.75183" lon="1.97102">
        <ele>215.95</ele>
        <time>2017-01-18T09:49:47Z</time>
      </trkpt>
      <trkpt lat="43.75169" lon="1.97109">
        <ele>214.51</ele>
        <time>2017-01-18T09:50:06Z</time>
      </trkpt>
      <trkpt lat="43.75147" lon="1.97121">
        <ele>214.03</ele>
        <time>2017-01-18T09:50:25Z</time>
      </trkpt>
      <trkpt lat="43.75128" lon="1.97129">
        <ele>215.47</ele>
        <time>2017-01-18T09:50:42Z</time>
      </trkpt>
      <trkpt lat="43.75107" lon="1.97138">
        <ele>215.47</ele>
        <time>2017-01-18T09:51:01Z</time>
      </trkpt>
      <trkpt lat="43.75087" lon="1.97139">
        <ele>214.03</ele>
        <time>2017-01-18T09:51:19Z</time>
      </trkpt>
      <trkpt lat="43.75085" lon="1.97137">
        <ele>213.55</ele>
        <time>2017-01-18T09:51:21Z</time>
      </trkpt>
      <trkpt lat="43.75061" lon="1.97131">
        <ele>213.07</ele>
        <time>2017-01-18T09:51:43Z</time>
      </trkpt>
      <trkpt lat="43.75058" lon="1.9713">
        <ele>213.07</ele>
        <time>2017-01-18T09:51:46Z</time>
      </trkpt>
      <trkpt lat="43.7504" lon="1.97143">
        <ele>216.43</ele>
        <time>2017-01-18T09:52:05Z</time>
      </trkpt>
      <trkpt lat="43.75024" lon="1.97161">
        <ele>218.84</ele>
        <time>2017-01-18T09:52:25Z</time>
      </trkpt>
      <trkpt lat="43.75008" lon="1.97177">
        <ele>220.28</ele>
        <time>2017-01-18T09:52:42Z</time>
      </trkpt>
      <trkpt lat="43.74995" lon="1.97189">
        <ele>221.24</ele>
        <time>2017-01-18T09:52:58Z</time>
      </trkpt>
      <trkpt lat="43.74982" lon="1.97201">
        <ele>221.24</ele>
        <time>2017-01-18T09:53:16Z</time>
      </trkpt>
      <trkpt lat="43.7498" lon="1.97207">
        <ele>218.36</ele>
        <time>2017-01-18T09:53:39Z</time>
      </trkpt>
      <trkpt lat="43.74971" lon="1.97213">
        <ele>218.84</ele>
        <time>2017-01-18T09:53:50Z</time>
      </trkpt>
      <trkpt lat="43.74962" lon="1.97222">
        <ele>220.28</ele>
        <time>2017-01-18T09:54:05Z</time>
      </trkpt>
      <trkpt lat="43.74958" lon="1.97224">
        <ele>221.24</ele>
        <time>2017-01-18T09:54:12Z</time>
      </trkpt>
      <trkpt lat="43.74954" lon="1.97225">
        <ele>221.24</ele>
        <time>2017-01-18T09:54:15Z</time>
      </trkpt>
      <trkpt lat="43.74938" lon="1.97236">
        <ele>222.68</ele>
        <time>2017-01-18T09:54:32Z</time>
      </trkpt>
      <trkpt lat="43.74918" lon="1.97252">
        <ele>225.57</ele>
        <time>2017-01-18T09:54:53Z</time>
      </trkpt>
      <trkpt lat="43.74904" lon="1.97263">
        <ele>226.05</ele>
        <time>2017-01-18T09:55:11Z</time>
      </trkpt>
      <trkpt lat="43.7489" lon="1.97274">
        <ele>227.01</ele>
        <time>2017-01-18T09:55:27Z</time>
      </trkpt>
      <trkpt lat="43.74867" lon="1.97291">
        <ele>229.41</ele>
        <time>2017-01-18T09:55:49Z</time>
      </trkpt>
      <trkpt lat="43.74848" lon="1.97305">
        <ele>230.85</ele>
        <time>2017-01-18T09:56:08Z</time>
      </trkpt>
      <trkpt lat="43.7483" lon="1.97321">
        <ele>231.81</ele>
        <time>2017-01-18T09:56:26Z</time>
      </trkpt>
      <trkpt lat="43.74816" lon="1.97337">
        <ele>231.81</ele>
        <time>2017-01-18T09:56:44Z</time>
      </trkpt>
      <trkpt lat="43.74804" lon="1.9736">
        <ele>232.3</ele>
        <time>2017-01-18T09:57:02Z</time>
      </trkpt>
      <trkpt lat="43.74794" lon="1.9738">
        <ele>232.78</ele>
        <time>2017-01-18T09:57:19Z</time>
      </trkpt>
      <trkpt lat="43.74781" lon="1.97406">
        <ele>235.18</ele>
        <time>2017-01-18T09:57:39Z</time>
      </trkpt>
      <trkpt lat="43.74768" lon="1.97434">
        <ele>235.66</ele>
        <time>2017-01-18T09:58:01Z</time>
      </trkpt>
      <trkpt lat="43.74759" lon="1.9745">
        <ele>236.14</ele>
        <time>2017-01-18T09:58:14Z</time>
      </trkpt>
      <trkpt lat="43.74747" lon="1.97473">
        <ele>237.1</ele>
        <time>2017-01-18T09:58:33Z</time>
      </trkpt>
      <trkpt lat="43.74736" lon="1.97497">
        <ele>238.54</ele>
        <time>2017-01-18T09:58:52Z</time>
      </trkpt>
      <trkpt lat="43.74723" lon="1.97522">
        <ele>239.02</ele>
        <time>2017-01-18T09:59:12Z</time>
      </trkpt>
      <trkpt lat="43.74711" lon="1.97546">
        <ele>239.99</ele>
        <time>2017-01-18T09:59:31Z</time>
      </trkpt>
      <trkpt lat="43.74699" lon="1.9757">
        <ele>239.99</ele>
        <time>2017-01-18T09:59:50Z</time>
      </trkpt>
      <trkpt lat="43.74685" lon="1.97597">
        <ele>241.43</ele>
        <time>2017-01-18T10:00:10Z</time>
      </trkpt>
      <trkpt lat="43.74672" lon="1.97625">
        <ele>241.91</ele>
        <time>2017-01-18T10:00:29Z</time>
      </trkpt>
      <trkpt lat="43.7466" lon="1.97651">
        <ele>243.35</ele>
        <time>2017-01-18T10:00:48Z</time>
      </trkpt>
      <trkpt lat="43.74649" lon="1.97676">
        <ele>243.35</ele>
        <time>2017-01-18T10:01:07Z</time>
      </trkpt>
      <trkpt lat="43.74637" lon="1.97701">
        <ele>244.79</ele>
        <time>2017-01-18T10:01:26Z</time>
      </trkpt>
      <trkpt lat="43.74626" lon="1.97725">
        <ele>244.31</ele>
        <time>2017-01-18T10:01:45Z</time>
      </trkpt>
      <trkpt lat="43.74611" lon="1.97747">
        <ele>244.31</ele>
        <time>2017-01-18T10:02:04Z</time>
      </trkpt>
      <trkpt lat="43.74593" lon="1.9776">
        <ele>244.79</ele>
        <time>2017-01-18T10:02:23Z</time>
      </trkpt>
      <trkpt lat="43.74572" lon="1.97768">
        <ele>247.2</ele>
        <time>2017-01-18T10:02:46Z</time>
      </trkpt>
      <trkpt lat="43.74563" lon="1.97771">
        <ele>248.16</ele>
        <time>2017-01-18T10:03:11Z</time>
      </trkpt>
      <trkpt lat="43.74535" lon="1.9778">
        <ele>247.2</ele>
        <time>2017-01-18T10:03:36Z</time>
      </trkpt>
      <trkpt lat="43.74509" lon="1.97788">
        <ele>248.64</ele>
        <time>2017-01-18T10:03:58Z</time>
      </trkpt>
      <trkpt lat="43.74482" lon="1.97796">
        <ele>250.08</ele>
        <time>2017-01-18T10:04:20Z</time>
      </trkpt>
      <trkpt lat="43.74461" lon="1.97805">
        <ele>252.96</ele>
        <time>2017-01-18T10:04:39Z</time>
      </trkpt>
      <trkpt lat="43.74438" lon="1.97813">
        <ele>254.41</ele>
        <time>2017-01-18T10:04:58Z</time>
      </trkpt>
      <trkpt lat="43.74424" lon="1.97826">
        <ele>254.41</ele>
        <time>2017-01-18T10:05:17Z</time>
      </trkpt>
      <trkpt lat="43.74423" lon="1.97826">
        <ele>254.41</ele>
        <time>2017-01-18T10:05:18Z</time>
      </trkpt>
      <trkpt lat="43.74397" lon="1.97831">
        <ele>254.89</ele>
        <time>2017-01-18T10:05:41Z</time>
      </trkpt>
      <trkpt lat="43.74377" lon="1.97837">
        <ele>254.89</ele>
        <time>2017-01-18T10:06:00Z</time>
      </trkpt>
      <trkpt lat="43.74354" lon="1.97841">
        <ele>253.93</ele>
        <time>2017-01-18T10:06:19Z</time>
      </trkpt>
      <trkpt lat="43.74335" lon="1.97846">
        <ele>252.48</ele>
        <time>2017-01-18T10:06:36Z</time>
      </trkpt>
      <trkpt lat="43.74312" lon="1.97854">
        <ele>250.08</ele>
        <time>2017-01-18T10:06:58Z</time>
      </trkpt>
      <trkpt lat="43.74294" lon="1.97859">
        <ele>246.72</ele>
        <time>2017-01-18T10:07:15Z</time>
      </trkpt>
      <trkpt lat="43.74273" lon="1.97859">
        <ele>242.87</ele>
        <time>2017-01-18T10:07:33Z</time>
      </trkpt>
      <trkpt lat="43.74254" lon="1.97859">
        <ele>242.87</ele>
        <time>2017-01-18T10:07:49Z</time>
      </trkpt>
      <trkpt lat="43.74236" lon="1.97854">
        <ele>241.43</ele>
        <time>2017-01-18T10:08:07Z</time>
      </trkpt>
      <trkpt lat="43.74212" lon="1.97831">
        <ele>244.31</ele>
        <time>2017-01-18T10:08:25Z</time>
      </trkpt>
      <trkpt lat="43.74197" lon="1.97819">
        <ele>245.27</ele>
        <time>2017-01-18T10:08:41Z</time>
      </trkpt>
      <trkpt lat="43.74181" lon="1.97798">
        <ele>248.16</ele>
        <time>2017-01-18T10:08:58Z</time>
      </trkpt>
      <trkpt lat="43.74162" lon="1.97781">
        <ele>248.64</ele>
        <time>2017-01-18T10:09:18Z</time>
      </trkpt>
      <trkpt lat="43.74146" lon="1.97765">
        <ele>248.16</ele>
        <time>2017-01-18T10:09:39Z</time>
      </trkpt>
      <trkpt lat="43.74139" lon="1.97762">
        <ele>249.6</ele>
        <time>2017-01-18T10:10:03Z</time>
      </trkpt>
      <trkpt lat="43.74121" lon="1.97754">
        <ele>249.6</ele>
        <time>2017-01-18T10:10:22Z</time>
      </trkpt>
      <trkpt lat="43.74093" lon="1.97747">
        <ele>251.04</ele>
        <time>2017-01-18T10:10:43Z</time>
      </trkpt>
      <trkpt lat="43.74068" lon="1.97739">
        <ele>249.12</ele>
        <time>2017-01-18T10:11:06Z</time>
      </trkpt>
      <trkpt lat="43.74045" lon="1.97729">
        <ele>248.16</ele>
        <time>2017-01-18T10:11:27Z</time>
      </trkpt>
      <trkpt lat="43.7402" lon="1.97716">
        <ele>248.16</ele>
        <time>2017-01-18T10:11:48Z</time>
      </trkpt>
      <trkpt lat="43.73993" lon="1.97699">
        <ele>248.16</ele>
        <time>2017-01-18T10:12:13Z</time>
      </trkpt>
      <trkpt lat="43.73975" lon="1.97681">
        <ele>247.2</ele>
        <time>2017-01-18T10:12:32Z</time>
      </trkpt>
      <trkpt lat="43.73956" lon="1.97658">
        <ele>245.75</ele>
        <time>2017-01-18T10:12:52Z</time>
      </trkpt>
      <trkpt lat="43.73944" lon="1.9764">
        <ele>245.27</ele>
        <time>2017-01-18T10:13:07Z</time>
      </trkpt>
      <trkpt lat="43.7393" lon="1.97618">
        <ele>246.23</ele>
        <time>2017-01-18T10:13:25Z</time>
      </trkpt>
      <trkpt lat="43.73914" lon="1.97595">
        <ele>246.72</ele>
        <time>2017-01-18T10:13:45Z</time>
      </trkpt>
      <trkpt lat="43.73898" lon="1.97574">
        <ele>246.72</ele>
        <time>2017-01-18T10:14:04Z</time>
      </trkpt>
      <trkpt lat="43.73883" lon="1.97555">
        <ele>246.72</ele>
        <time>2017-01-18T10:14:21Z</time>
      </trkpt>
      <trkpt lat="43.73869" lon="1.97541">
        <ele>247.68</ele>
        <time>2017-01-18T10:14:36Z</time>
      </trkpt>
      <trkpt lat="43.73851" lon="1.97529">
        <ele>248.64</ele>
        <time>2017-01-18T10:14:55Z</time>
      </trkpt>
      <trkpt lat="43.73831" lon="1.97524">
        <ele>248.64</ele>
        <time>2017-01-18T10:15:12Z</time>
      </trkpt>
      <trkpt lat="43.73815" lon="1.97522">
        <ele>249.6</ele>
        <time>2017-01-18T10:15:30Z</time>
      </trkpt>
      <trkpt lat="43.73803" lon="1.97527">
        <ele>250.08</ele>
        <time>2017-01-18T10:15:46Z</time>
      </trkpt>
      <trkpt lat="43.73781" lon="1.97534">
        <ele>249.12</ele>
        <time>2017-01-18T10:16:05Z</time>
      </trkpt>
      <trkpt lat="43.73755" lon="1.97539">
        <ele>248.16</ele>
        <time>2017-01-18T10:16:27Z</time>
      </trkpt>
      <trkpt lat="43.73733" lon="1.97531">
        <ele>249.6</ele>
        <time>2017-01-18T10:16:48Z</time>
      </trkpt>
      <trkpt lat="43.73718" lon="1.97513">
        <ele>250.56</ele>
        <time>2017-01-18T10:17:06Z</time>
      </trkpt>
      <trkpt lat="43.73717" lon="1.97511">
        <ele>250.56</ele>
        <time>2017-01-18T10:17:07Z</time>
      </trkpt>
      <trkpt lat="43.73707" lon="1.97487">
        <ele>252.48</ele>
        <time>2017-01-18T10:17:25Z</time>
      </trkpt>
      <trkpt lat="43.73699" lon="1.97462">
        <ele>252.96</ele>
        <time>2017-01-18T10:17:43Z</time>
      </trkpt>
      <trkpt lat="43.73693" lon="1.97437">
        <ele>252.48</ele>
        <time>2017-01-18T10:18:02Z</time>
      </trkpt>
      <trkpt lat="43.73693" lon="1.97425">
        <ele>252</ele>
        <time>2017-01-18T10:18:11Z</time>
      </trkpt>
      <trkpt lat="43.73696" lon="1.97399">
        <ele>252.96</ele>
        <time>2017-01-18T10:18:29Z</time>
      </trkpt>
      <trkpt lat="43.73701" lon="1.97373">
        <ele>253.93</ele>
        <time>2017-01-18T10:18:49Z</time>
      </trkpt>
      <trkpt lat="43.73705" lon="1.97359">
        <ele>255.37</ele>
        <time>2017-01-18T10:19:07Z</time>
      </trkpt>
      <trkpt lat="43.73706" lon="1.97358">
        <ele>256.33</ele>
        <time>2017-01-18T10:19:32Z</time>
      </trkpt>
      <trkpt lat="43.73706" lon="1.97338">
        <ele>257.77</ele>
        <time>2017-01-18T10:19:49Z</time>
      </trkpt>
      <trkpt lat="43.73701" lon="1.97315">
        <ele>260.17</ele>
        <time>2017-01-18T10:20:08Z</time>
      </trkpt>
      <trkpt lat="43.73697" lon="1.97308">
        <ele>259.69</ele>
        <time>2017-01-18T10:20:18Z</time>
      </trkpt>
      <trkpt lat="43.73684" lon="1.97295">
        <ele>262.1</ele>
        <time>2017-01-18T10:20:34Z</time>
      </trkpt>
      <trkpt lat="43.73668" lon="1.97279">
        <ele>263.54</ele>
        <time>2017-01-18T10:20:52Z</time>
      </trkpt>
      <trkpt lat="43.7366" lon="1.97271">
        <ele>264.5</ele>
        <time>2017-01-18T10:21:07Z</time>
      </trkpt>
      <trkpt lat="43.73648" lon="1.97257">
        <ele>265.94</ele>
        <time>2017-01-18T10:21:24Z</time>
      </trkpt>
      <trkpt lat="43.73633" lon="1.97238">
        <ele>264.5</ele>
        <time>2017-01-18T10:21:43Z</time>
      </trkpt>
      <trkpt lat="43.73621" lon="1.97224">
        <ele>262.1</ele>
        <time>2017-01-18T10:22:00Z</time>
      </trkpt>
      <trkpt lat="43.73607" lon="1.97212">
        <ele>261.14</ele>
        <time>2017-01-18T10:22:13Z</time>
      </trkpt>
      <trkpt lat="43.73587" lon="1.97203">
        <ele>261.14</ele>
        <time>2017-01-18T10:22:30Z</time>
      </trkpt>
      <trkpt lat="43.73567" lon="1.97191">
        <ele>262.1</ele>
        <time>2017-01-18T10:22:49Z</time>
      </trkpt>
      <trkpt lat="43.73548" lon="1.97179">
        <ele>263.54</ele>
        <time>2017-01-18T10:23:07Z</time>
      </trkpt>
      <trkpt lat="43.73536" lon="1.97169">
        <ele>265.46</ele>
        <time>2017-01-18T10:23:24Z</time>
      </trkpt>
      <trkpt lat="43.7352" lon="1.97155">
        <ele>264.02</ele>
        <time>2017-01-18T10:23:41Z</time>
      </trkpt>
      <trkpt lat="43.73516" lon="1.97151">
        <ele>262.1</ele>
        <time>2017-01-18T10:23:57Z</time>
      </trkpt>
      <trkpt lat="43.73516" lon="1.97155">
        <ele>261.62</ele>
        <time>2017-01-18T10:24:20Z</time>
      </trkpt>
      <trkpt lat="43.73509" lon="1.97158">
        <ele>262.58</ele>
        <time>2017-01-18T10:24:36Z</time>
      </trkpt>
      <trkpt lat="43.73504" lon="1.97169">
        <ele>264.5</ele>
        <time>2017-01-18T10:24:53Z</time>
      </trkpt>
      <trkpt lat="43.73501" lon="1.97189">
        <ele>263.54</ele>
        <time>2017-01-18T10:25:12Z</time>
      </trkpt>
      <trkpt lat="43.73501" lon="1.9721">
        <ele>263.54</ele>
        <time>2017-01-18T10:25:29Z</time>
      </trkpt>
      <trkpt lat="43.73502" lon="1.97232">
        <ele>264.02</ele>
        <time>2017-01-18T10:25:47Z</time>
      </trkpt>
      <trkpt lat="43.73505" lon="1.97254">
        <ele>264.98</ele>
        <time>2017-01-18T10:26:05Z</time>
      </trkpt>
      <trkpt lat="43.73508" lon="1.97274">
        <ele>266.9</ele>
        <time>2017-01-18T10:26:21Z</time>
      </trkpt>
      <trkpt lat="43.73512" lon="1.97293">
        <ele>266.42</ele>
        <time>2017-01-18T10:26:37Z</time>
      </trkpt>
      <trkpt lat="43.73516" lon="1.97321">
        <ele>267.38</ele>
        <time>2017-01-18T10:26:59Z</time>
      </trkpt>
      <trkpt lat="43.73519" lon="1.97341">
        <ele>267.86</ele>
        <time>2017-01-18T10:27:17Z</time>
      </trkpt>
      <trkpt lat="43.73522" lon="1.97362">
        <ele>271.23</ele>
        <time>2017-01-18T10:27:33Z</time>
      </trkpt>
      <trkpt lat="43.73523" lon="1.97374">
        <ele>276.52</ele>
        <time>2017-01-18T10:27:49Z</time>
      </trkpt>
      <trkpt lat="43.73524" lon="1.97393">
        <ele>280.36</ele>
        <time>2017-01-18T10:28:05Z</time>
      </trkpt>
      <trkpt lat="43.73523" lon="1.97416">
        <ele>283.25</ele>
        <time>2017-01-18T10:28:22Z</time>
      </trkpt>
      <trkpt lat="43.73523" lon="1.97434">
        <ele>284.69</ele>
        <time>2017-01-18T10:28:36Z</time>
      </trkpt>
      <trkpt lat="43.73523" lon="1.97458">
        <ele>285.17</ele>
        <time>2017-01-18T10:28:54Z</time>
      </trkpt>
      <trkpt lat="43.73521" lon="1.97485">
        <ele>285.65</ele>
        <time>2017-01-18T10:29:14Z</time>
      </trkpt>
      <trkpt lat="43.73518" lon="1.97509">
        <ele>284.69</ele>
        <time>2017-01-18T10:29:32Z</time>
      </trkpt>
      <trkpt lat="43.73519" lon="1.97528">
        <ele>285.17</ele>
        <time>2017-01-18T10:29:47Z</time>
      </trkpt>
      <trkpt lat="43.7352" lon="1.97549">
        <ele>285.65</ele>
        <time>2017-01-18T10:30:04Z</time>
      </trkpt>
      <trkpt lat="43.73519" lon="1.97559">
        <ele>286.61</ele>
        <time>2017-01-18T10:30:24Z</time>
      </trkpt>
      <trkpt lat="43.73516" lon="1.97594">
        <ele>287.57</ele>
        <time>2017-01-18T10:30:46Z</time>
      </trkpt>
      <trkpt lat="43.73509" lon="1.97626">
        <ele>288.05</ele>
        <time>2017-01-18T10:31:07Z</time>
      </trkpt>
      <trkpt lat="43.73501" lon="1.97654">
        <ele>285.17</ele>
        <time>2017-01-18T10:31:26Z</time>
      </trkpt>
      <trkpt lat="43.73496" lon="1.97681">
        <ele>283.25</ele>
        <time>2017-01-18T10:31:44Z</time>
      </trkpt>
      <trkpt lat="43.73491" lon="1.977">
        <ele>281.8</ele>
        <time>2017-01-18T10:31:59Z</time>
      </trkpt>
      <trkpt lat="43.73484" lon="1.97729">
        <ele>280.84</ele>
        <time>2017-01-18T10:32:17Z</time>
      </trkpt>
      <trkpt lat="43.73478" lon="1.97754">
        <ele>281.32</ele>
        <time>2017-01-18T10:32:34Z</time>
      </trkpt>
      <trkpt lat="43.73476" lon="1.97768">
        <ele>282.77</ele>
        <time>2017-01-18T10:32:48Z</time>
      </trkpt>
      <trkpt lat="43.73471" lon="1.97785">
        <ele>283.73</ele>
        <time>2017-01-18T10:33:04Z</time>
      </trkpt>
      <trkpt lat="43.73469" lon="1.97803">
        <ele>284.69</ele>
        <time>2017-01-18T10:33:21Z</time>
      </trkpt>
      <trkpt lat="43.73464" lon="1.97823">
        <ele>286.13</ele>
        <time>2017-01-18T10:33:36Z</time>
      </trkpt>
      <trkpt lat="43.73458" lon="1.97842">
        <ele>288.05</ele>
        <time>2017-01-18T10:33:53Z</time>
      </trkpt>
      <trkpt lat="43.73453" lon="1.97858">
        <ele>289.49</ele>
        <time>2017-01-18T10:34:07Z</time>
      </trkpt>
      <trkpt lat="43.73449" lon="1.97873">
        <ele>289.97</ele>
        <time>2017-01-18T10:34:20Z</time>
      </trkpt>
      <trkpt lat="43.73443" lon="1.97891">
        <ele>290.46</ele>
        <time>2017-01-18T10:34:36Z</time>
      </trkpt>
      <trkpt lat="43.73439" lon="1.97911">
        <ele>291.9</ele>
        <time>2017-01-18T10:34:52Z</time>
      </trkpt>
      <trkpt lat="43.73435" lon="1.97935">
        <ele>291.42</ele>
        <time>2017-01-18T10:35:09Z</time>
      </trkpt>
      <trkpt lat="43.7343" lon="1.97954">
        <ele>290.46</ele>
        <time>2017-01-18T10:35:23Z</time>
      </trkpt>
      <trkpt lat="43.73422" lon="1.97976">
        <ele>289.01</ele>
        <time>2017-01-18T10:35:38Z</time>
      </trkpt>
      <trkpt lat="43.73411" lon="1.98001">
        <ele>289.49</ele>
        <time>2017-01-18T10:35:55Z</time>
      </trkpt>
      <trkpt lat="43.73407" lon="1.98012">
        <ele>289.49</ele>
        <time>2017-01-18T10:36:03Z</time>
      </trkpt>
      <trkpt lat="43.73395" lon="1.98037">
        <ele>289.49</ele>
        <time>2017-01-18T10:36:22Z</time>
      </trkpt>
      <trkpt lat="43.73385" lon="1.98059">
        <ele>289.01</ele>
        <time>2017-01-18T10:36:38Z</time>
      </trkpt>
      <trkpt lat="43.73378" lon="1.9809">
        <ele>288.05</ele>
        <time>2017-01-18T10:36:58Z</time>
      </trkpt>
      <trkpt lat="43.73379" lon="1.98107">
        <ele>287.09</ele>
        <time>2017-01-18T10:37:15Z</time>
      </trkpt>
      <trkpt lat="43.73381" lon="1.98133">
        <ele>286.61</ele>
        <time>2017-01-18T10:37:33Z</time>
      </trkpt>
      <trkpt lat="43.73382" lon="1.98162">
        <ele>286.13</ele>
        <time>2017-01-18T10:37:51Z</time>
      </trkpt>
      <trkpt lat="43.73384" lon="1.98195">
        <ele>284.69</ele>
        <time>2017-01-18T10:38:11Z</time>
      </trkpt>
      <trkpt lat="43.73386" lon="1.98231">
        <ele>281.8</ele>
        <time>2017-01-18T10:38:33Z</time>
      </trkpt>
      <trkpt lat="43.7339" lon="1.98258">
        <ele>280.36</ele>
        <time>2017-01-18T10:38:51Z</time>
      </trkpt>
      <trkpt lat="43.73392" lon="1.98287">
        <ele>279.88</ele>
        <time>2017-01-18T10:39:10Z</time>
      </trkpt>
      <trkpt lat="43.73393" lon="1.9831">
        <ele>278.92</ele>
        <time>2017-01-18T10:39:27Z</time>
      </trkpt>
      <trkpt lat="43.73392" lon="1.98316">
        <ele>278.44</ele>
        <time>2017-01-18T10:39:31Z</time>
      </trkpt>
      <trkpt lat="43.73384" lon="1.98344">
        <ele>277.96</ele>
        <time>2017-01-18T10:39:50Z</time>
      </trkpt>
      <trkpt lat="43.73376" lon="1.98368">
        <ele>277.96</ele>
        <time>2017-01-18T10:40:07Z</time>
      </trkpt>
      <trkpt lat="43.73369" lon="1.9839">
        <ele>278.44</ele>
        <time>2017-01-18T10:40:22Z</time>
      </trkpt>
      <trkpt lat="43.73365" lon="1.98407">
        <ele>277.96</ele>
        <time>2017-01-18T10:40:36Z</time>
      </trkpt>
      <trkpt lat="43.7336" lon="1.9843">
        <ele>277</ele>
        <time>2017-01-18T10:40:54Z</time>
      </trkpt>
      <trkpt lat="43.73354" lon="1.98453">
        <ele>277.96</ele>
        <time>2017-01-18T10:41:10Z</time>
      </trkpt>
      <trkpt lat="43.7335" lon="1.98471">
        <ele>280.84</ele>
        <time>2017-01-18T10:41:24Z</time>
      </trkpt>
      <trkpt lat="43.73347" lon="1.98486">
        <ele>285.17</ele>
        <time>2017-01-18T10:41:37Z</time>
      </trkpt>
      <trkpt lat="43.73344" lon="1.98503">
        <ele>286.13</ele>
        <time>2017-01-18T10:41:53Z</time>
      </trkpt>
      <trkpt lat="43.73337" lon="1.98523">
        <ele>285.65</ele>
        <time>2017-01-18T10:42:09Z</time>
      </trkpt>
      <trkpt lat="43.73329" lon="1.98542">
        <ele>286.13</ele>
        <time>2017-01-18T10:42:26Z</time>
      </trkpt>
      <trkpt lat="43.73326" lon="1.98562">
        <ele>284.21</ele>
        <time>2017-01-18T10:42:42Z</time>
      </trkpt>
      <trkpt lat="43.73323" lon="1.98583">
        <ele>282.77</ele>
        <time>2017-01-18T10:42:59Z</time>
      </trkpt>
      <trkpt lat="43.73316" lon="1.98604">
        <ele>282.77</ele>
        <time>2017-01-18T10:43:16Z</time>
      </trkpt>
      <trkpt lat="43.73305" lon="1.98623">
        <ele>286.13</ele>
        <time>2017-01-18T10:43:34Z</time>
      </trkpt>
      <trkpt lat="43.733" lon="1.98631">
        <ele>290.94</ele>
        <time>2017-01-18T10:43:52Z</time>
      </trkpt>
      <trkpt lat="43.73296" lon="1.98632">
        <ele>298.15</ele>
        <time>2017-01-18T10:44:27Z</time>
      </trkpt>
      <trkpt lat="43.73293" lon="1.98632">
        <ele>301.03</ele>
        <time>2017-01-18T10:44:46Z</time>
      </trkpt>
      <trkpt lat="43.73285" lon="1.98638">
        <ele>301.99</ele>
        <time>2017-01-18T10:45:02Z</time>
      </trkpt>
      <trkpt lat="43.73271" lon="1.98647">
        <ele>303.43</ele>
        <time>2017-01-18T10:45:21Z</time>
      </trkpt>
      <trkpt lat="43.73263" lon="1.98658">
        <ele>302.95</ele>
        <time>2017-01-18T10:45:37Z</time>
      </trkpt>
      <trkpt lat="43.7326" lon="1.98678">
        <ele>301.03</ele>
        <time>2017-01-18T10:45:56Z</time>
      </trkpt>
      <trkpt lat="43.73262" lon="1.98696">
        <ele>299.11</ele>
        <time>2017-01-18T10:46:12Z</time>
      </trkpt>
      <trkpt lat="43.73264" lon="1.98716">
        <ele>299.59</ele>
        <time>2017-01-18T10:46:28Z</time>
      </trkpt>
      <trkpt lat="43.73266" lon="1.98733">
        <ele>300.07</ele>
        <time>2017-01-18T10:46:43Z</time>
      </trkpt>
      <trkpt lat="43.73267" lon="1.98756">
        <ele>301.99</ele>
        <time>2017-01-18T10:47:01Z</time>
      </trkpt>
      <trkpt lat="43.73264" lon="1.98776">
        <ele>303.91</ele>
        <time>2017-01-18T10:47:20Z</time>
      </trkpt>
      <trkpt lat="43.73261" lon="1.98794">
        <ele>304.88</ele>
        <time>2017-01-18T10:47:38Z</time>
      </trkpt>
      <trkpt lat="43.73257" lon="1.98817">
        <ele>307.28</ele>
        <time>2017-01-18T10:47:57Z</time>
      </trkpt>
      <trkpt lat="43.73251" lon="1.98848">
        <ele>314.01</ele>
        <time>2017-01-18T10:48:16Z</time>
      </trkpt>
      <trkpt lat="43.73249" lon="1.98873">
        <ele>314.97</ele>
        <time>2017-01-18T10:48:33Z</time>
      </trkpt>
      <trkpt lat="43.7325" lon="1.98896">
        <ele>312.57</ele>
        <time>2017-01-18T10:48:51Z</time>
      </trkpt>
      <trkpt lat="43.73246" lon="1.98922">
        <ele>313.05</ele>
        <time>2017-01-18T10:49:07Z</time>
      </trkpt>
      <trkpt lat="43.73241" lon="1.9895">
        <ele>313.05</ele>
        <time>2017-01-18T10:49:25Z</time>
      </trkpt>
      <trkpt lat="43.73238" lon="1.98972">
        <ele>313.05</ele>
        <time>2017-01-18T10:49:43Z</time>
      </trkpt>
      <trkpt lat="43.73231" lon="1.98994">
        <ele>313.53</ele>
        <time>2017-01-18T10:49:59Z</time>
      </trkpt>
      <trkpt lat="43.73222" lon="1.99023">
        <ele>315.45</ele>
        <time>2017-01-18T10:50:18Z</time>
      </trkpt>
      <trkpt lat="43.73213" lon="1.99046">
        <ele>315.45</ele>
        <time>2017-01-18T10:50:34Z</time>
      </trkpt>
      <trkpt lat="43.73207" lon="1.99065">
        <ele>316.41</ele>
        <time>2017-01-18T10:50:47Z</time>
      </trkpt>
      <trkpt lat="43.73199" lon="1.99089">
        <ele>314.49</ele>
        <time>2017-01-18T10:51:05Z</time>
      </trkpt>
      <trkpt lat="43.7319" lon="1.9911">
        <ele>316.89</ele>
        <time>2017-01-18T10:51:21Z</time>
      </trkpt>
      <trkpt lat="43.73176" lon="1.99126">
        <ele>320.74</ele>
        <time>2017-01-18T10:51:39Z</time>
      </trkpt>
      <trkpt lat="43.73165" lon="1.99139">
        <ele>323.62</ele>
        <time>2017-01-18T10:51:56Z</time>
      </trkpt>
      <trkpt lat="43.73158" lon="1.99143">
        <ele>326.02</ele>
        <time>2017-01-18T10:52:19Z</time>
      </trkpt>
      <trkpt lat="43.73158" lon="1.99144">
        <ele>324.1</ele>
        <time>2017-01-18T10:53:01Z</time>
      </trkpt>
      <trkpt lat="43.73157" lon="1.99144">
        <ele>323.14</ele>
        <time>2017-01-18T10:53:40Z</time>
      </trkpt>
      <trkpt lat="43.7316" lon="1.99144">
        <ele>324.1</ele>
        <time>2017-01-18T10:54:04Z</time>
      </trkpt>
      <trkpt lat="43.73159" lon="1.99144">
        <ele>324.58</ele>
        <time>2017-01-18T10:54:33Z</time>
      </trkpt>
      <trkpt lat="43.73159" lon="1.99143">
        <ele>326.02</ele>
        <time>2017-01-18T10:55:02Z</time>
      </trkpt>
      <trkpt lat="43.73161" lon="1.99144">
        <ele>329.39</ele>
        <time>2017-01-18T10:55:31Z</time>
      </trkpt>
      <trkpt lat="43.73159" lon="1.99143">
        <ele>329.39</ele>
        <time>2017-01-18T10:56:05Z</time>
      </trkpt>
      <trkpt lat="43.73159" lon="1.99145">
        <ele>327.47</ele>
        <time>2017-01-18T10:56:34Z</time>
      </trkpt>
      <trkpt lat="43.73159" lon="1.99145">
        <ele>327.47</ele>
        <time>2017-01-18T10:57:04Z</time>
      </trkpt>
      <trkpt lat="43.7316" lon="1.99145">
        <ele>326.02</ele>
        <time>2017-01-18T10:57:26Z</time>
      </trkpt>
      <trkpt lat="43.7316" lon="1.99144">
        <ele>326.99</ele>
        <time>2017-01-18T10:57:53Z</time>
      </trkpt>
      <trkpt lat="43.73157" lon="1.99143">
        <ele>327.47</ele>
        <time>2017-01-18T10:58:12Z</time>
      </trkpt>
      <trkpt lat="43.73153" lon="1.99142">
        <ele>326.5</ele>
        <time>2017-01-18T10:58:28Z</time>
      </trkpt>
      <trkpt lat="43.73159" lon="1.99146">
        <ele>327.95</ele>
        <time>2017-01-18T10:58:44Z</time>
      </trkpt>
      <trkpt lat="43.7316" lon="1.99144">
        <ele>330.83</ele>
        <time>2017-01-18T10:59:00Z</time>
      </trkpt>
      <trkpt lat="43.7316" lon="1.99144">
        <ele>330.83</ele>
        <time>2017-01-18T10:59:19Z</time>
      </trkpt>
      <trkpt lat="43.73159" lon="1.99147">
        <ele>327.95</ele>
        <time>2017-01-18T10:59:44Z</time>
      </trkpt>
      <trkpt lat="43.73154" lon="1.99149">
        <ele>326.99</ele>
        <time>2017-01-18T11:00:05Z</time>
      </trkpt>
      <trkpt lat="43.7314" lon="1.99167">
        <ele>326.5</ele>
        <time>2017-01-18T11:00:24Z</time>
      </trkpt>
      <trkpt lat="43.73137" lon="1.99173">
        <ele>326.5</ele>
        <time>2017-01-18T11:00:29Z</time>
      </trkpt>
      <trkpt lat="43.73123" lon="1.99201">
        <ele>327.47</ele>
        <time>2017-01-18T11:00:52Z</time>
      </trkpt>
      <trkpt lat="43.73111" lon="1.99227">
        <ele>327.95</ele>
        <time>2017-01-18T11:01:12Z</time>
      </trkpt>
      <trkpt lat="43.73102" lon="1.99257">
        <ele>329.87</ele>
        <time>2017-01-18T11:01:34Z</time>
      </trkpt>
      <trkpt lat="43.73098" lon="1.99279">
        <ele>330.83</ele>
        <time>2017-01-18T11:01:50Z</time>
      </trkpt>
      <trkpt lat="43.73096" lon="1.99305">
        <ele>329.39</ele>
        <time>2017-01-18T11:02:09Z</time>
      </trkpt>
      <trkpt lat="43.73095" lon="1.99332">
        <ele>329.87</ele>
        <time>2017-01-18T11:02:26Z</time>
      </trkpt>
      <trkpt lat="43.73096" lon="1.99354">
        <ele>327.95</ele>
        <time>2017-01-18T11:02:41Z</time>
      </trkpt>
      <trkpt lat="43.73094" lon="1.99381">
        <ele>325.06</ele>
        <time>2017-01-18T11:02:58Z</time>
      </trkpt>
      <trkpt lat="43.73092" lon="1.9941">
        <ele>325.54</ele>
        <time>2017-01-18T11:03:14Z</time>
      </trkpt>
      <trkpt lat="43.73094" lon="1.99437">
        <ele>327.47</ele>
        <time>2017-01-18T11:03:32Z</time>
      </trkpt>
      <trkpt lat="43.73088" lon="1.99458">
        <ele>327.95</ele>
        <time>2017-01-18T11:03:50Z</time>
      </trkpt>
      <trkpt lat="43.73076" lon="1.99485">
        <ele>330.35</ele>
        <time>2017-01-18T11:04:10Z</time>
      </trkpt>
      <trkpt lat="43.73068" lon="1.99502">
        <ele>330.83</ele>
        <time>2017-01-18T11:04:27Z</time>
      </trkpt>
      <trkpt lat="43.73057" lon="1.99522">
        <ele>332.27</ele>
        <time>2017-01-18T11:04:42Z</time>
      </trkpt>
      <trkpt lat="43.73048" lon="1.99543">
        <ele>331.79</ele>
        <time>2017-01-18T11:05:01Z</time>
      </trkpt>
      <trkpt lat="43.73042" lon="1.99559">
        <ele>332.27</ele>
        <time>2017-01-18T11:05:19Z</time>
      </trkpt>
      <trkpt lat="43.73034" lon="1.99573">
        <ele>332.75</ele>
        <time>2017-01-18T11:05:34Z</time>
      </trkpt>
      <trkpt lat="43.73023" lon="1.99597">
        <ele>335.64</ele>
        <time>2017-01-18T11:05:51Z</time>
      </trkpt>
      <trkpt lat="43.73014" lon="1.99616">
        <ele>336.6</ele>
        <time>2017-01-18T11:06:09Z</time>
      </trkpt>
      <trkpt lat="43.73004" lon="1.99635">
        <ele>338.52</ele>
        <time>2017-01-18T11:06:26Z</time>
      </trkpt>
      <trkpt lat="43.72997" lon="1.99658">
        <ele>339.96</ele>
        <time>2017-01-18T11:06:44Z</time>
      </trkpt>
      <trkpt lat="43.72989" lon="1.99681">
        <ele>339.48</ele>
        <time>2017-01-18T11:07:01Z</time>
      </trkpt>
      <trkpt lat="43.72979" lon="1.99708">
        <ele>337.56</ele>
        <time>2017-01-18T11:07:19Z</time>
      </trkpt>
      <trkpt lat="43.72973" lon="1.99729">
        <ele>334.68</ele>
        <time>2017-01-18T11:07:36Z</time>
      </trkpt>
      <trkpt lat="43.72961" lon="1.9975">
        <ele>333.23</ele>
        <time>2017-01-18T11:07:54Z</time>
      </trkpt>
      <trkpt lat="43.72948" lon="1.99765">
        <ele>330.35</ele>
        <time>2017-01-18T11:08:10Z</time>
      </trkpt>
      <trkpt lat="43.72935" lon="1.99775">
        <ele>329.39</ele>
        <time>2017-01-18T11:08:23Z</time>
      </trkpt>
      <trkpt lat="43.7293" lon="1.9978">
        <ele>328.43</ele>
        <time>2017-01-18T11:08:29Z</time>
      </trkpt>
      <trkpt lat="43.72921" lon="1.99795">
        <ele>324.1</ele>
        <time>2017-01-18T11:08:44Z</time>
      </trkpt>
      <trkpt lat="43.72919" lon="1.99802">
        <ele>323.14</ele>
        <time>2017-01-18T11:08:49Z</time>
      </trkpt>
      <trkpt lat="43.7292" lon="1.99808">
        <ele>322.18</ele>
        <time>2017-01-18T11:08:53Z</time>
      </trkpt>
      <trkpt lat="43.72925" lon="1.99815">
        <ele>320.26</ele>
        <time>2017-01-18T11:09:00Z</time>
      </trkpt>
      <trkpt lat="43.72937" lon="1.9983">
        <ele>316.89</ele>
        <time>2017-01-18T11:09:16Z</time>
      </trkpt>
      <trkpt lat="43.72951" lon="1.99847">
        <ele>314.49</ele>
        <time>2017-01-18T11:09:33Z</time>
      </trkpt>
      <trkpt lat="43.72964" lon="1.99844">
        <ele>311.6</ele>
        <time>2017-01-18T11:09:51Z</time>
      </trkpt>
      <trkpt lat="43.72988" lon="1.99833">
        <ele>308.72</ele>
        <time>2017-01-18T11:10:13Z</time>
      </trkpt>
      <trkpt lat="43.73011" lon="1.99829">
        <ele>311.6</ele>
        <time>2017-01-18T11:10:32Z</time>
      </trkpt>
      <trkpt lat="43.73033" lon="1.99828">
        <ele>313.53</ele>
        <time>2017-01-18T11:10:50Z</time>
      </trkpt>
      <trkpt lat="43.73052" lon="1.99824">
        <ele>313.05</ele>
        <time>2017-01-18T11:11:07Z</time>
      </trkpt>
      <trkpt lat="43.73072" lon="1.99822">
        <ele>311.6</ele>
        <time>2017-01-18T11:11:24Z</time>
      </trkpt>
      <trkpt lat="43.73095" lon="1.9982">
        <ele>312.09</ele>
        <time>2017-01-18T11:11:44Z</time>
      </trkpt>
      <trkpt lat="43.73119" lon="1.99821">
        <ele>312.09</ele>
        <time>2017-01-18T11:12:04Z</time>
      </trkpt>
      <trkpt lat="43.73137" lon="1.99822">
        <ele>311.6</ele>
        <time>2017-01-18T11:12:21Z</time>
      </trkpt>
      <trkpt lat="43.73156" lon="1.99822">
        <ele>312.09</ele>
        <time>2017-01-18T11:12:39Z</time>
      </trkpt>
      <trkpt lat="43.73173" lon="1.99821">
        <ele>312.57</ele>
        <time>2017-01-18T11:12:58Z</time>
      </trkpt>
      <trkpt lat="43.73192" lon="1.99821">
        <ele>313.05</ele>
        <time>2017-01-18T11:13:17Z</time>
      </trkpt>
      <trkpt lat="43.73209" lon="1.99817">
        <ele>311.12</ele>
        <time>2017-01-18T11:13:34Z</time>
      </trkpt>
      <trkpt lat="43.73226" lon="1.99815">
        <ele>306.8</ele>
        <time>2017-01-18T11:13:50Z</time>
      </trkpt>
      <trkpt lat="43.73247" lon="1.99816">
        <ele>306.8</ele>
        <time>2017-01-18T11:14:08Z</time>
      </trkpt>
      <trkpt lat="43.73264" lon="1.99815">
        <ele>307.28</ele>
        <time>2017-01-18T11:14:25Z</time>
      </trkpt>
      <trkpt lat="43.73283" lon="1.9981">
        <ele>304.88</ele>
        <time>2017-01-18T11:14:44Z</time>
      </trkpt>
      <trkpt lat="43.733" lon="1.998">
        <ele>301.51</ele>
        <time>2017-01-18T11:15:03Z</time>
      </trkpt>
      <trkpt lat="43.73318" lon="1.99798">
        <ele>300.55</ele>
        <time>2017-01-18T11:15:19Z</time>
      </trkpt>
      <trkpt lat="43.73337" lon="1.99794">
        <ele>297.18</ele>
        <time>2017-01-18T11:15:39Z</time>
      </trkpt>
      <trkpt lat="43.73345" lon="1.99793">
        <ele>295.74</ele>
        <time>2017-01-18T11:15:47Z</time>
      </trkpt>
      <trkpt lat="43.73366" lon="1.99793">
        <ele>294.78</ele>
        <time>2017-01-18T11:16:05Z</time>
      </trkpt>
      <trkpt lat="43.73384" lon="1.99797">
        <ele>294.78</ele>
        <time>2017-01-18T11:16:21Z</time>
      </trkpt>
      <trkpt lat="43.73411" lon="1.99802">
        <ele>294.3</ele>
        <time>2017-01-18T11:16:44Z</time>
      </trkpt>
      <trkpt lat="43.73432" lon="1.9981">
        <ele>294.3</ele>
        <time>2017-01-18T11:17:03Z</time>
      </trkpt>
      <trkpt lat="43.73452" lon="1.99821">
        <ele>293.34</ele>
        <time>2017-01-18T11:17:22Z</time>
      </trkpt>
      <trkpt lat="43.73474" lon="1.99829">
        <ele>293.82</ele>
        <time>2017-01-18T11:17:41Z</time>
      </trkpt>
      <trkpt lat="43.73491" lon="1.99836">
        <ele>292.86</ele>
        <time>2017-01-18T11:17:57Z</time>
      </trkpt>
      <trkpt lat="43.73511" lon="1.99837">
        <ele>290.94</ele>
        <time>2017-01-18T11:18:16Z</time>
      </trkpt>
      <trkpt lat="43.73528" lon="1.99838">
        <ele>289.01</ele>
        <time>2017-01-18T11:18:33Z</time>
      </trkpt>
      <trkpt lat="43.73543" lon="1.99842">
        <ele>284.69</ele>
        <time>2017-01-18T11:18:50Z</time>
      </trkpt>
      <trkpt lat="43.73567" lon="1.99839">
        <ele>281.32</ele>
        <time>2017-01-18T11:19:11Z</time>
      </trkpt>
      <trkpt lat="43.73585" lon="1.99834">
        <ele>278.92</ele>
        <time>2017-01-18T11:19:28Z</time>
      </trkpt>
      <trkpt lat="43.73605" lon="1.99823">
        <ele>279.4</ele>
        <time>2017-01-18T11:19:47Z</time>
      </trkpt>
      <trkpt lat="43.73625" lon="1.99816">
        <ele>279.4</ele>
        <time>2017-01-18T11:20:04Z</time>
      </trkpt>
      <trkpt lat="43.7364" lon="1.99806">
        <ele>276.04</ele>
        <time>2017-01-18T11:20:20Z</time>
      </trkpt>
      <trkpt lat="43.73656" lon="1.99796">
        <ele>270.27</ele>
        <time>2017-01-18T11:20:39Z</time>
      </trkpt>
      <trkpt lat="43.73674" lon="1.99798">
        <ele>267.86</ele>
        <time>2017-01-18T11:20:54Z</time>
      </trkpt>
      <trkpt lat="43.73682" lon="1.99825">
        <ele>267.86</ele>
        <time>2017-01-18T11:21:12Z</time>
      </trkpt>
      <trkpt lat="43.73683" lon="1.99842">
        <ele>267.86</ele>
        <time>2017-01-18T11:21:24Z</time>
      </trkpt>
      <trkpt lat="43.73682" lon="1.99853">
        <ele>267.86</ele>
        <time>2017-01-18T11:21:32Z</time>
      </trkpt>
      <trkpt lat="43.73676" lon="1.99881">
        <ele>266.9</ele>
        <time>2017-01-18T11:21:49Z</time>
      </trkpt>
      <trkpt lat="43.73679" lon="1.99899">
        <ele>264.98</ele>
        <time>2017-01-18T11:22:03Z</time>
      </trkpt>
      <trkpt lat="43.7369" lon="1.99925">
        <ele>263.06</ele>
        <time>2017-01-18T11:22:21Z</time>
      </trkpt>
      <trkpt lat="43.73702" lon="1.99945">
        <ele>262.58</ele>
        <time>2017-01-18T11:22:37Z</time>
      </trkpt>
      <trkpt lat="43.73711" lon="1.9996">
        <ele>261.14</ele>
        <time>2017-01-18T11:22:50Z</time>
      </trkpt>
      <trkpt lat="43.73722" lon="1.99974">
        <ele>258.25</ele>
        <time>2017-01-18T11:23:05Z</time>
      </trkpt>
      <trkpt lat="43.73733" lon="1.99993">
        <ele>253.93</ele>
        <time>2017-01-18T11:23:22Z</time>
      </trkpt>
      <trkpt lat="43.73742" lon="2.00016">
        <ele>249.6</ele>
        <time>2017-01-18T11:23:38Z</time>
      </trkpt>
      <trkpt lat="43.73753" lon="2.00036">
        <ele>246.23</ele>
        <time>2017-01-18T11:23:54Z</time>
      </trkpt>
      <trkpt lat="43.7376" lon="2.00049">
        <ele>245.27</ele>
        <time>2017-01-18T11:24:05Z</time>
      </trkpt>
      <trkpt lat="43.73773" lon="2.00064">
        <ele>243.83</ele>
        <time>2017-01-18T11:24:22Z</time>
      </trkpt>
      <trkpt lat="43.73792" lon="2.00084">
        <ele>239.02</ele>
        <time>2017-01-18T11:24:44Z</time>
      </trkpt>
      <trkpt lat="43.73809" lon="2.00099">
        <ele>236.62</ele>
        <time>2017-01-18T11:25:00Z</time>
      </trkpt>
      <trkpt lat="43.7382" lon="2.00115">
        <ele>236.62</ele>
        <time>2017-01-18T11:25:15Z</time>
      </trkpt>
      <trkpt lat="43.7382" lon="2.00122">
        <ele>237.58</ele>
        <time>2017-01-18T11:25:19Z</time>
      </trkpt>
      <trkpt lat="43.73811" lon="2.00145">
        <ele>239.99</ele>
        <time>2017-01-18T11:25:35Z</time>
      </trkpt>
      <trkpt lat="43.73805" lon="2.00164">
        <ele>243.35</ele>
        <time>2017-01-18T11:25:50Z</time>
      </trkpt>
      <trkpt lat="43.73802" lon="2.00175">
        <ele>243.83</ele>
        <time>2017-01-18T11:25:57Z</time>
      </trkpt>
      <trkpt lat="43.73799" lon="2.00201">
        <ele>244.31</ele>
        <time>2017-01-18T11:26:14Z</time>
      </trkpt>
      <trkpt lat="43.73801" lon="2.00222">
        <ele>242.39</ele>
        <time>2017-01-18T11:26:28Z</time>
      </trkpt>
      <trkpt lat="43.738" lon="2.00244">
        <ele>240.95</ele>
        <time>2017-01-18T11:26:42Z</time>
      </trkpt>
      <trkpt lat="43.738" lon="2.00254">
        <ele>240.95</ele>
        <time>2017-01-18T11:26:49Z</time>
      </trkpt>
      <trkpt lat="43.73803" lon="2.00281">
        <ele>239.51</ele>
        <time>2017-01-18T11:27:06Z</time>
      </trkpt>
      <trkpt lat="43.73819" lon="2.00297">
        <ele>238.54</ele>
        <time>2017-01-18T11:27:24Z</time>
      </trkpt>
      <trkpt lat="43.73845" lon="2.00305">
        <ele>238.54</ele>
        <time>2017-01-18T11:27:44Z</time>
      </trkpt>
      <trkpt lat="43.7387" lon="2.00314">
        <ele>237.1</ele>
        <time>2017-01-18T11:28:06Z</time>
      </trkpt>
      <trkpt lat="43.73891" lon="2.00322">
        <ele>234.7</ele>
        <time>2017-01-18T11:28:25Z</time>
      </trkpt>
      <trkpt lat="43.73911" lon="2.0033">
        <ele>234.22</ele>
        <time>2017-01-18T11:28:43Z</time>
      </trkpt>
      <trkpt lat="43.73931" lon="2.00337">
        <ele>232.3</ele>
        <time>2017-01-18T11:29:00Z</time>
      </trkpt>
      <trkpt lat="43.73952" lon="2.00343">
        <ele>231.81</ele>
        <time>2017-01-18T11:29:19Z</time>
      </trkpt>
      <trkpt lat="43.73974" lon="2.00351">
        <ele>228.93</ele>
        <time>2017-01-18T11:29:40Z</time>
      </trkpt>
      <trkpt lat="43.73996" lon="2.00358">
        <ele>227.01</ele>
        <time>2017-01-18T11:30:00Z</time>
      </trkpt>
      <trkpt lat="43.74011" lon="2.00363">
        <ele>226.53</ele>
        <time>2017-01-18T11:30:13Z</time>
      </trkpt>
      <trkpt lat="43.7403" lon="2.00365">
        <ele>225.09</ele>
        <time>2017-01-18T11:30:30Z</time>
      </trkpt>
      <trkpt lat="43.74047" lon="2.00371">
        <ele>222.2</ele>
        <time>2017-01-18T11:30:47Z</time>
      </trkpt>
      <trkpt lat="43.74067" lon="2.00381">
        <ele>219.32</ele>
        <time>2017-01-18T11:31:06Z</time>
      </trkpt>
      <trkpt lat="43.74084" lon="2.00392">
        <ele>215.47</ele>
        <time>2017-01-18T11:31:24Z</time>
      </trkpt>
      <trkpt lat="43.74103" lon="2.00405">
        <ele>214.03</ele>
        <time>2017-01-18T11:31:41Z</time>
      </trkpt>
      <trkpt lat="43.74119" lon="2.00415">
        <ele>210.67</ele>
        <time>2017-01-18T11:31:58Z</time>
      </trkpt>
      <trkpt lat="43.74138" lon="2.00423">
        <ele>207.78</ele>
        <time>2017-01-18T11:32:15Z</time>
      </trkpt>
      <trkpt lat="43.74158" lon="2.00433">
        <ele>207.3</ele>
        <time>2017-01-18T11:32:34Z</time>
      </trkpt>
      <trkpt lat="43.74163" lon="2.00441">
        <ele>206.34</ele>
        <time>2017-01-18T11:32:40Z</time>
      </trkpt>
      <trkpt lat="43.74162" lon="2.00469">
        <ele>206.82</ele>
        <time>2017-01-18T11:32:58Z</time>
      </trkpt>
      <trkpt lat="43.7416" lon="2.0049">
        <ele>205.38</ele>
        <time>2017-01-18T11:33:14Z</time>
      </trkpt>
      <trkpt lat="43.7416" lon="2.00506">
        <ele>204.42</ele>
        <time>2017-01-18T11:33:27Z</time>
      </trkpt>
      <trkpt lat="43.74173" lon="2.00512">
        <ele>201.53</ele>
        <time>2017-01-18T11:33:43Z</time>
      </trkpt>
      <trkpt lat="43.74182" lon="2.00519">
        <ele>199.13</ele>
        <time>2017-01-18T11:33:52Z</time>
      </trkpt>
      <trkpt lat="43.74197" lon="2.00527">
        <ele>199.13</ele>
        <time>2017-01-18T11:34:07Z</time>
      </trkpt>
      <trkpt lat="43.74213" lon="2.00529">
        <ele>202.01</ele>
        <time>2017-01-18T11:34:24Z</time>
      </trkpt>
      <trkpt lat="43.74223" lon="2.00526">
        <ele>202.98</ele>
        <time>2017-01-18T11:34:37Z</time>
      </trkpt>
      <trkpt lat="43.74239" lon="2.00512">
        <ele>205.38</ele>
        <time>2017-01-18T11:34:54Z</time>
      </trkpt>
      <trkpt lat="43.74254" lon="2.00493">
        <ele>207.3</ele>
        <time>2017-01-18T11:35:12Z</time>
      </trkpt>
      <trkpt lat="43.74264" lon="2.00481">
        <ele>208.74</ele>
        <time>2017-01-18T11:35:28Z</time>
      </trkpt>
      <trkpt lat="43.74266" lon="2.00479">
        <ele>208.74</ele>
        <time>2017-01-18T11:35:30Z</time>
      </trkpt>
      <trkpt lat="43.74283" lon="2.00455">
        <ele>208.26</ele>
        <time>2017-01-18T11:35:50Z</time>
      </trkpt>
      <trkpt lat="43.74296" lon="2.00434">
        <ele>206.82</ele>
        <time>2017-01-18T11:36:07Z</time>
      </trkpt>
      <trkpt lat="43.74308" lon="2.00412">
        <ele>207.3</ele>
        <time>2017-01-18T11:36:24Z</time>
      </trkpt>
      <trkpt lat="43.74321" lon="2.0039">
        <ele>210.67</ele>
        <time>2017-01-18T11:36:42Z</time>
      </trkpt>
      <trkpt lat="43.74333" lon="2.0037">
        <ele>211.63</ele>
        <time>2017-01-18T11:36:59Z</time>
      </trkpt>
      <trkpt lat="43.74334" lon="2.00368">
        <ele>211.63</ele>
        <time>2017-01-18T11:37:00Z</time>
      </trkpt>
      <trkpt lat="43.74347" lon="2.00346">
        <ele>211.15</ele>
        <time>2017-01-18T11:37:18Z</time>
      </trkpt>
      <trkpt lat="43.74358" lon="2.00327">
        <ele>211.15</ele>
        <time>2017-01-18T11:37:33Z</time>
      </trkpt>
      <trkpt lat="43.74369" lon="2.00305">
        <ele>209.7</ele>
        <time>2017-01-18T11:37:50Z</time>
      </trkpt>
      <trkpt lat="43.74371" lon="2.00302">
        <ele>209.7</ele>
        <time>2017-01-18T11:37:53Z</time>
      </trkpt>
      <trkpt lat="43.74381" lon="2.00282">
        <ele>209.22</ele>
        <time>2017-01-18T11:38:10Z</time>
      </trkpt>
      <trkpt lat="43.74388" lon="2.00261">
        <ele>208.26</ele>
        <time>2017-01-18T11:38:26Z</time>
      </trkpt>
      <trkpt lat="43.74396" lon="2.0024">
        <ele>209.7</ele>
        <time>2017-01-18T11:38:40Z</time>
      </trkpt>
      <trkpt lat="43.74405" lon="2.00221">
        <ele>211.15</ele>
        <time>2017-01-18T11:38:56Z</time>
      </trkpt>
      <trkpt lat="43.74416" lon="2.00203">
        <ele>211.15</ele>
        <time>2017-01-18T11:39:11Z</time>
      </trkpt>
      <trkpt lat="43.74424" lon="2.0019">
        <ele>209.22</ele>
        <time>2017-01-18T11:39:24Z</time>
      </trkpt>
      <trkpt lat="43.74432" lon="2.00175">
        <ele>204.9</ele>
        <time>2017-01-18T11:39:39Z</time>
      </trkpt>
      <trkpt lat="43.74437" lon="2.00159">
        <ele>203.46</ele>
        <time>2017-01-18T11:39:55Z</time>
      </trkpt>
      <trkpt lat="43.7443" lon="2.00143">
        <ele>203.46</ele>
        <time>2017-01-18T11:40:11Z</time>
      </trkpt>
      <trkpt lat="43.74414" lon="2.00127">
        <ele>208.74</ele>
        <time>2017-01-18T11:40:30Z</time>
      </trkpt>
      <trkpt lat="43.744" lon="2.00111">
        <ele>208.26</ele>
        <time>2017-01-18T11:40:52Z</time>
      </trkpt>
      <trkpt lat="43.74389" lon="2.00103">
        <ele>208.74</ele>
        <time>2017-01-18T11:41:09Z</time>
      </trkpt>
      <trkpt lat="43.7438" lon="2.00099">
        <ele>199.61</ele>
        <time>2017-01-18T11:41:28Z</time>
      </trkpt>
      <trkpt lat="43.7438" lon="2.00096">
        <ele>194.32</ele>
        <time>2017-01-18T11:41:41Z</time>
      </trkpt>
      <trkpt lat="43.74379" lon="2.00095">
        <ele>192.88</ele>
        <time>2017-01-18T11:41:45Z</time>
      </trkpt>
      <trkpt lat="43.74366" lon="2.00106">
        <ele>190.96</ele>
        <time>2017-01-18T11:42:01Z</time>
      </trkpt>
      <trkpt lat="43.74351" lon="2.00112">
        <ele>192.4</ele>
        <time>2017-01-18T11:42:14Z</time>
      </trkpt>
      <trkpt lat="43.74351" lon="2.00093">
        <ele>191.44</ele>
        <time>2017-01-18T11:42:30Z</time>
      </trkpt>
      <trkpt lat="43.74354" lon="2.00084">
        <ele>190.48</ele>
        <time>2017-01-18T11:42:35Z</time>
      </trkpt>
      <trkpt lat="43.74361" lon="2.00071">
        <ele>190.48</ele>
        <time>2017-01-18T11:42:46Z</time>
      </trkpt>
      <trkpt lat="43.74366" lon="2.00061">
        <ele>190.96</ele>
        <time>2017-01-18T11:42:53Z</time>
      </trkpt>
      <trkpt lat="43.74378" lon="2.00037">
        <ele>188.56</ele>
        <time>2017-01-18T11:43:11Z</time>
      </trkpt>
      <trkpt lat="43.74383" lon="2.00015">
        <ele>187.11</ele>
        <time>2017-01-18T11:43:28Z</time>
      </trkpt>
      <trkpt lat="43.74384" lon="1.99983">
        <ele>187.59</ele>
        <time>2017-01-18T11:43:45Z</time>
      </trkpt>
      <trkpt lat="43.74394" lon="1.9996">
        <ele>190</ele>
        <time>2017-01-18T11:44:00Z</time>
      </trkpt>
      <trkpt lat="43.74414" lon="1.99947">
        <ele>191.44</ele>
        <time>2017-01-18T11:44:17Z</time>
      </trkpt>
      <trkpt lat="43.74423" lon="1.99928">
        <ele>190</ele>
        <time>2017-01-18T11:44:32Z</time>
      </trkpt>
      <trkpt lat="43.7443" lon="1.99897">
        <ele>190.96</ele>
        <time>2017-01-18T11:44:51Z</time>
      </trkpt>
      <trkpt lat="43.74444" lon="1.99877">
        <ele>191.92</ele>
        <time>2017-01-18T11:45:07Z</time>
      </trkpt>
      <trkpt lat="43.7446" lon="1.99857">
        <ele>193.36</ele>
        <time>2017-01-18T11:45:25Z</time>
      </trkpt>
      <trkpt lat="43.74461" lon="1.99832">
        <ele>192.4</ele>
        <time>2017-01-18T11:45:42Z</time>
      </trkpt>
      <trkpt lat="43.74464" lon="1.99815">
        <ele>194.8</ele>
        <time>2017-01-18T11:45:54Z</time>
      </trkpt>
      <trkpt lat="43.74478" lon="1.99798">
        <ele>194.32</ele>
        <time>2017-01-18T11:46:10Z</time>
      </trkpt>
      <trkpt lat="43.74489" lon="1.9979">
        <ele>192.4</ele>
        <time>2017-01-18T11:46:21Z</time>
      </trkpt>
      <trkpt lat="43.74508" lon="1.99778">
        <ele>191.44</ele>
        <time>2017-01-18T11:46:38Z</time>
      </trkpt>
      <trkpt lat="43.74508" lon="1.99751">
        <ele>185.67</ele>
        <time>2017-01-18T11:46:57Z</time>
      </trkpt>
      <trkpt lat="43.74504" lon="1.99724">
        <ele>186.63</ele>
        <time>2017-01-18T11:47:17Z</time>
      </trkpt>
      <trkpt lat="43.74512" lon="1.99705">
        <ele>189.52</ele>
        <time>2017-01-18T11:47:33Z</time>
      </trkpt>
      <trkpt lat="43.7452" lon="1.99685">
        <ele>192.88</ele>
        <time>2017-01-18T11:47:50Z</time>
      </trkpt>
      <trkpt lat="43.74527" lon="1.99664">
        <ele>191.92</ele>
        <time>2017-01-18T11:48:09Z</time>
      </trkpt>
      <trkpt lat="43.74532" lon="1.99642">
        <ele>193.36</ele>
        <time>2017-01-18T11:48:26Z</time>
      </trkpt>
      <trkpt lat="43.74533" lon="1.99639">
        <ele>193.36</ele>
        <time>2017-01-18T11:48:28Z</time>
      </trkpt>
      <trkpt lat="43.74546" lon="1.99616">
        <ele>198.17</ele>
        <time>2017-01-18T11:48:45Z</time>
      </trkpt>
      <trkpt lat="43.74555" lon="1.9961">
        <ele>196.25</ele>
        <time>2017-01-18T11:48:58Z</time>
      </trkpt>
      <trkpt lat="43.74574" lon="1.99607">
        <ele>194.32</ele>
        <time>2017-01-18T11:49:16Z</time>
      </trkpt>
      <trkpt lat="43.74579" lon="1.99593">
        <ele>195.28</ele>
        <time>2017-01-18T11:49:31Z</time>
      </trkpt>
      <trkpt lat="43.74568" lon="1.99577">
        <ele>195.28</ele>
        <time>2017-01-18T11:49:48Z</time>
      </trkpt>
      <trkpt lat="43.74558" lon="1.99566">
        <ele>196.73</ele>
        <time>2017-01-18T11:50:00Z</time>
      </trkpt>
      <trkpt lat="43.74542" lon="1.99539">
        <ele>197.69</ele>
        <time>2017-01-18T11:50:20Z</time>
      </trkpt>
      <trkpt lat="43.74538" lon="1.99532">
        <ele>196.73</ele>
        <time>2017-01-18T11:50:26Z</time>
      </trkpt>
      <trkpt lat="43.74537" lon="1.99518">
        <ele>200.09</ele>
        <time>2017-01-18T11:50:34Z</time>
      </trkpt>
      <trkpt lat="43.7455" lon="1.99518">
        <ele>200.09</ele>
        <time>2017-01-18T11:50:48Z</time>
      </trkpt>
      <trkpt lat="43.74568" lon="1.99534">
        <ele>195.77</ele>
        <time>2017-01-18T11:51:05Z</time>
      </trkpt>
      <trkpt lat="43.74588" lon="1.99552">
        <ele>194.8</ele>
        <time>2017-01-18T11:51:24Z</time>
      </trkpt>
      <trkpt lat="43.74603" lon="1.99568">
        <ele>192.4</ele>
        <time>2017-01-18T11:51:42Z</time>
      </trkpt>
      <trkpt lat="43.74621" lon="1.99581">
        <ele>190.48</ele>
        <time>2017-01-18T11:51:59Z</time>
      </trkpt>
      <trkpt lat="43.74627" lon="1.99583">
        <ele>190.48</ele>
        <time>2017-01-18T11:52:05Z</time>
      </trkpt>
      <trkpt lat="43.74653" lon="1.99592">
        <ele>190.48</ele>
        <time>2017-01-18T11:52:25Z</time>
      </trkpt>
      <trkpt lat="43.74672" lon="1.9959">
        <ele>188.08</ele>
        <time>2017-01-18T11:52:42Z</time>
      </trkpt>
      <trkpt lat="43.74674" lon="1.99587">
        <ele>188.56</ele>
        <time>2017-01-18T11:52:45Z</time>
      </trkpt>
      <trkpt lat="43.7468" lon="1.9958">
        <ele>188.08</ele>
        <time>2017-01-18T11:52:51Z</time>
      </trkpt>
      <trkpt lat="43.74692" lon="1.99557">
        <ele>188.56</ele>
        <time>2017-01-18T11:53:09Z</time>
      </trkpt>
      <trkpt lat="43.747" lon="1.99536">
        <ele>190.96</ele>
        <time>2017-01-18T11:53:24Z</time>
      </trkpt>
      <trkpt lat="43.74711" lon="1.99512">
        <ele>190.96</ele>
        <time>2017-01-18T11:53:42Z</time>
      </trkpt>
      <trkpt lat="43.74726" lon="1.9949">
        <ele>190</ele>
        <time>2017-01-18T11:54:02Z</time>
      </trkpt>
      <trkpt lat="43.74737" lon="1.9947">
        <ele>190.48</ele>
        <time>2017-01-18T11:54:19Z</time>
      </trkpt>
      <trkpt lat="43.74741" lon="1.99465">
        <ele>190.48</ele>
        <time>2017-01-18T11:54:24Z</time>
      </trkpt>
      <trkpt lat="43.74751" lon="1.99455">
        <ele>191.44</ele>
        <time>2017-01-18T11:54:40Z</time>
      </trkpt>
      <trkpt lat="43.74751" lon="1.99453">
        <ele>191.92</ele>
        <time>2017-01-18T11:54:54Z</time>
      </trkpt>
      <trkpt lat="43.74749" lon="1.99453">
        <ele>191.92</ele>
        <time>2017-01-18T11:55:29Z</time>
      </trkpt>
      <trkpt lat="43.74751" lon="1.99449">
        <ele>190.48</ele>
        <time>2017-01-18T11:55:54Z</time>
      </trkpt>
      <trkpt lat="43.74765" lon="1.99434">
        <ele>191.44</ele>
        <time>2017-01-18T11:56:12Z</time>
      </trkpt>
      <trkpt lat="43.74779" lon="1.99417">
        <ele>189.52</ele>
        <time>2017-01-18T11:56:29Z</time>
      </trkpt>
      <trkpt lat="43.74787" lon="1.99406">
        <ele>191.44</ele>
        <time>2017-01-18T11:56:40Z</time>
      </trkpt>
      <trkpt lat="43.748" lon="1.9939">
        <ele>190.96</ele>
        <time>2017-01-18T11:56:57Z</time>
      </trkpt>
      <trkpt lat="43.74812" lon="1.99375">
        <ele>190.96</ele>
        <time>2017-01-18T11:57:11Z</time>
      </trkpt>
      <trkpt lat="43.74824" lon="1.99358">
        <ele>190.96</ele>
        <time>2017-01-18T11:57:28Z</time>
      </trkpt>
      <trkpt lat="43.74838" lon="1.99337">
        <ele>191.44</ele>
        <time>2017-01-18T11:57:47Z</time>
      </trkpt>
      <trkpt lat="43.7485" lon="1.9932">
        <ele>192.4</ele>
        <time>2017-01-18T11:58:03Z</time>
      </trkpt>
      <trkpt lat="43.74854" lon="1.99315">
        <ele>192.88</ele>
        <time>2017-01-18T11:58:08Z</time>
      </trkpt>
      <trkpt lat="43.74872" lon="1.99294">
        <ele>192.88</ele>
        <time>2017-01-18T11:58:28Z</time>
      </trkpt>
      <trkpt lat="43.74886" lon="1.99275">
        <ele>191.92</ele>
        <time>2017-01-18T11:58:47Z</time>
      </trkpt>
      <trkpt lat="43.74898" lon="1.99259">
        <ele>191.92</ele>
        <time>2017-01-18T11:59:05Z</time>
      </trkpt>
      <trkpt lat="43.74907" lon="1.99244">
        <ele>192.4</ele>
        <time>2017-01-18T11:59:23Z</time>
      </trkpt>
      <trkpt lat="43.7491" lon="1.99245">
        <ele>192.88</ele>
        <time>2017-01-18T11:59:51Z</time>
      </trkpt>
      <trkpt lat="43.74912" lon="1.99241">
        <ele>202.01</ele>
        <time>2017-01-18T12:00:24Z</time>
      </trkpt>
      <trkpt lat="43.74911" lon="1.99241">
        <ele>198.17</ele>
        <time>2017-01-18T12:00:40Z</time>
      </trkpt>
      <trkpt lat="43.7491" lon="1.99241">
        <ele>200.09</ele>
        <time>2017-01-18T12:01:06Z</time>
      </trkpt>
      <trkpt lat="43.7491" lon="1.99242">
        <ele>200.57</ele>
        <time>2017-01-18T12:01:37Z</time>
      </trkpt>
      <trkpt lat="43.74908" lon="1.99244">
        <ele>199.13</ele>
        <time>2017-01-18T12:02:07Z</time>
      </trkpt>
      <trkpt lat="43.74911" lon="1.99244">
        <ele>197.69</ele>
        <time>2017-01-18T12:02:29Z</time>
      </trkpt>
      <trkpt lat="43.74909" lon="1.99243">
        <ele>197.69</ele>
        <time>2017-01-18T12:02:48Z</time>
      </trkpt>
      <trkpt lat="43.74908" lon="1.99243">
        <ele>197.21</ele>
        <time>2017-01-18T12:03:03Z</time>
      </trkpt>
      <trkpt lat="43.7491" lon="1.99244">
        <ele>196.25</ele>
        <time>2017-01-18T12:03:16Z</time>
      </trkpt>
      <trkpt lat="43.74911" lon="1.99243">
        <ele>195.77</ele>
        <time>2017-01-18T12:03:34Z</time>
      </trkpt>
      <trkpt lat="43.7491" lon="1.99239">
        <ele>193.36</ele>
        <time>2017-01-18T12:03:55Z</time>
      </trkpt>
      <trkpt lat="43.74909" lon="1.99241">
        <ele>194.8</ele>
        <time>2017-01-18T12:04:19Z</time>
      </trkpt>
      <trkpt lat="43.74905" lon="1.99241">
        <ele>198.17</ele>
        <time>2017-01-18T12:04:44Z</time>
      </trkpt>
      <trkpt lat="43.74908" lon="1.99239">
        <ele>196.73</ele>
        <time>2017-01-18T12:05:16Z</time>
      </trkpt>
      <trkpt lat="43.74909" lon="1.99242">
        <ele>198.65</ele>
        <time>2017-01-18T12:05:38Z</time>
      </trkpt>
      <trkpt lat="43.74906" lon="1.99238">
        <ele>191.44</ele>
        <time>2017-01-18T12:06:15Z</time>
      </trkpt>
      <trkpt lat="43.74907" lon="1.99239">
        <ele>188.56</ele>
        <time>2017-01-18T12:06:42Z</time>
      </trkpt>
      <trkpt lat="43.74905" lon="1.99243">
        <ele>190</ele>
        <time>2017-01-18T12:07:11Z</time>
      </trkpt>
      <trkpt lat="43.74905" lon="1.99244">
        <ele>189.04</ele>
        <time>2017-01-18T12:07:36Z</time>
      </trkpt>
      <trkpt lat="43.74906" lon="1.99242">
        <ele>189.52</ele>
        <time>2017-01-18T12:08:02Z</time>
      </trkpt>
      <trkpt lat="43.74907" lon="1.99243">
        <ele>193.36</ele>
        <time>2017-01-18T12:08:23Z</time>
      </trkpt>
      <trkpt lat="43.74906" lon="1.99246">
        <ele>193.36</ele>
        <time>2017-01-18T12:08:42Z</time>
      </trkpt>
      <trkpt lat="43.74905" lon="1.99247">
        <ele>195.28</ele>
        <time>2017-01-18T12:09:13Z</time>
      </trkpt>
      <trkpt lat="43.74901" lon="1.99246">
        <ele>195.28</ele>
        <time>2017-01-18T12:09:42Z</time>
      </trkpt>
      <trkpt lat="43.74901" lon="1.99239">
        <ele>194.8</ele>
        <time>2017-01-18T12:10:11Z</time>
      </trkpt>
      <trkpt lat="43.74902" lon="1.99238">
        <ele>194.32</ele>
        <time>2017-01-18T12:10:39Z</time>
      </trkpt>
      <trkpt lat="43.74905" lon="1.99243">
        <ele>191.44</ele>
        <time>2017-01-18T12:10:57Z</time>
      </trkpt>
      <trkpt lat="43.74909" lon="1.99244">
        <ele>192.88</ele>
        <time>2017-01-18T12:11:18Z</time>
      </trkpt>
      <trkpt lat="43.74912" lon="1.99243">
        <ele>197.21</ele>
        <time>2017-01-18T12:11:48Z</time>
      </trkpt>
      <trkpt lat="43.7491" lon="1.99242">
        <ele>196.73</ele>
        <time>2017-01-18T12:12:12Z</time>
      </trkpt>
      <trkpt lat="43.74913" lon="1.99241">
        <ele>194.8</ele>
        <time>2017-01-18T12:12:45Z</time>
      </trkpt>
      <trkpt lat="43.74913" lon="1.99242">
        <ele>193.84</ele>
        <time>2017-01-18T12:13:16Z</time>
      </trkpt>
      <trkpt lat="43.74913" lon="1.99244">
        <ele>192.88</ele>
        <time>2017-01-18T12:13:48Z</time>
      </trkpt>
      <trkpt lat="43.74909" lon="1.99241">
        <ele>191.92</ele>
        <time>2017-01-18T12:14:23Z</time>
      </trkpt>
      <trkpt lat="43.74911" lon="1.99242">
        <ele>193.84</ele>
        <time>2017-01-18T12:14:47Z</time>
      </trkpt>
      <trkpt lat="43.74909" lon="1.99244">
        <ele>194.8</ele>
        <time>2017-01-18T12:14:58Z</time>
      </trkpt>
      <trkpt lat="43.74911" lon="1.99246">
        <ele>195.28</ele>
        <time>2017-01-18T12:15:29Z</time>
      </trkpt>
      <trkpt lat="43.74907" lon="1.9924">
        <ele>194.32</ele>
        <time>2017-01-18T12:15:45Z</time>
      </trkpt>
      <trkpt lat="43.74909" lon="1.99239">
        <ele>193.36</ele>
        <time>2017-01-18T12:16:01Z</time>
      </trkpt>
      <trkpt lat="43.74909" lon="1.99242">
        <ele>193.84</ele>
        <time>2017-01-18T12:16:27Z</time>
      </trkpt>
      <trkpt lat="43.74916" lon="1.9924">
        <ele>193.36</ele>
        <time>2017-01-18T12:16:39Z</time>
      </trkpt>
      <trkpt lat="43.74927" lon="1.99228">
        <ele>197.21</ele>
        <time>2017-01-18T12:16:53Z</time>
      </trkpt>
      <trkpt lat="43.74936" lon="1.99222">
        <ele>198.17</ele>
        <time>2017-01-18T12:17:06Z</time>
      </trkpt>
      <trkpt lat="43.74947" lon="1.99213">
        <ele>197.69</ele>
        <time>2017-01-18T12:17:20Z</time>
      </trkpt>
      <trkpt lat="43.74958" lon="1.99197">
        <ele>197.69</ele>
        <time>2017-01-18T12:17:36Z</time>
      </trkpt>
      <trkpt lat="43.74971" lon="1.99185">
        <ele>196.25</ele>
        <time>2017-01-18T12:17:53Z</time>
      </trkpt>
      <trkpt lat="43.74976" lon="1.99183">
        <ele>198.65</ele>
        <time>2017-01-18T12:18:09Z</time>
      </trkpt>
      <trkpt lat="43.74983" lon="1.99177">
        <ele>196.25</ele>
        <time>2017-01-18T12:18:21Z</time>
      </trkpt>
      <trkpt lat="43.74987" lon="1.99166">
        <ele>195.28</ele>
        <time>2017-01-18T12:18:34Z</time>
      </trkpt>
      <trkpt lat="43.74972" lon="1.99168">
        <ele>194.32</ele>
        <time>2017-01-18T12:18:48Z</time>
      </trkpt>
      <trkpt lat="43.74962" lon="1.99168">
        <ele>194.8</ele>
        <time>2017-01-18T12:18:59Z</time>
      </trkpt>
      <trkpt lat="43.74943" lon="1.99173">
        <ele>194.8</ele>
        <time>2017-01-18T12:19:16Z</time>
      </trkpt>
      <trkpt lat="43.74926" lon="1.99176">
        <ele>194.32</ele>
        <time>2017-01-18T12:19:31Z</time>
      </trkpt>
      <trkpt lat="43.74925" lon="1.99176">
        <ele>194.32</ele>
        <time>2017-01-18T12:19:32Z</time>
      </trkpt>
      <trkpt lat="43.74911" lon="1.99177">
        <ele>193.36</ele>
        <time>2017-01-18T12:19:45Z</time>
      </trkpt>
      <trkpt lat="43.74906" lon="1.99178">
        <ele>192.88</ele>
        <time>2017-01-18T12:19:58Z</time>
      </trkpt>
      <trkpt lat="43.74906" lon="1.9917">
        <ele>192.4</ele>
        <time>2017-01-18T12:20:04Z</time>
      </trkpt>
      <trkpt lat="43.74901" lon="1.99167">
        <ele>193.36</ele>
        <time>2017-01-18T12:20:11Z</time>
      </trkpt>
      <trkpt lat="43.74883" lon="1.99172">
        <ele>195.77</ele>
        <time>2017-01-18T12:20:28Z</time>
      </trkpt>
      <trkpt lat="43.74875" lon="1.99174">
        <ele>197.69</ele>
        <time>2017-01-18T12:20:35Z</time>
      </trkpt>
      <trkpt lat="43.74859" lon="1.9918">
        <ele>199.61</ele>
        <time>2017-01-18T12:20:49Z</time>
      </trkpt>
      <trkpt lat="43.74841" lon="1.99188">
        <ele>201.53</ele>
        <time>2017-01-18T12:21:03Z</time>
      </trkpt>
      <trkpt lat="43.74825" lon="1.99206">
        <ele>202.49</ele>
        <time>2017-01-18T12:21:19Z</time>
      </trkpt>
      <trkpt lat="43.74812" lon="1.99222">
        <ele>202.98</ele>
        <time>2017-01-18T12:21:33Z</time>
      </trkpt>
      <trkpt lat="43.74798" lon="1.99237">
        <ele>203.46</ele>
        <time>2017-01-18T12:21:48Z</time>
      </trkpt>
      <trkpt lat="43.74785" lon="1.99249">
        <ele>202.98</ele>
        <time>2017-01-18T12:22:02Z</time>
      </trkpt>
      <trkpt lat="43.74775" lon="1.99262">
        <ele>202.98</ele>
        <time>2017-01-18T12:22:15Z</time>
      </trkpt>
      <trkpt lat="43.74765" lon="1.99272">
        <ele>203.94</ele>
        <time>2017-01-18T12:22:25Z</time>
      </trkpt>
      <trkpt lat="43.74753" lon="1.99282">
        <ele>204.9</ele>
        <time>2017-01-18T12:22:38Z</time>
      </trkpt>
      <trkpt lat="43.7474" lon="1.99291">
        <ele>205.38</ele>
        <time>2017-01-18T12:22:52Z</time>
      </trkpt>
      <trkpt lat="43.74728" lon="1.99298">
        <ele>206.34</ele>
        <time>2017-01-18T12:23:04Z</time>
      </trkpt>
      <trkpt lat="43.74712" lon="1.9931">
        <ele>206.34</ele>
        <time>2017-01-18T12:23:19Z</time>
      </trkpt>
      <trkpt lat="43.74698" lon="1.99319">
        <ele>207.3</ele>
        <time>2017-01-18T12:23:35Z</time>
      </trkpt>
      <trkpt lat="43.74687" lon="1.99324">
        <ele>207.78</ele>
        <time>2017-01-18T12:23:44Z</time>
      </trkpt>
      <trkpt lat="43.74673" lon="1.99332">
        <ele>210.67</ele>
        <time>2017-01-18T12:23:59Z</time>
      </trkpt>
      <trkpt lat="43.74662" lon="1.99342">
        <ele>210.67</ele>
        <time>2017-01-18T12:24:13Z</time>
      </trkpt>
      <trkpt lat="43.74654" lon="1.9935">
        <ele>212.59</ele>
        <time>2017-01-18T12:24:26Z</time>
      </trkpt>
      <trkpt lat="43.74643" lon="1.99359">
        <ele>214.51</ele>
        <time>2017-01-18T12:24:37Z</time>
      </trkpt>
      <trkpt lat="43.74628" lon="1.9937">
        <ele>214.51</ele>
        <time>2017-01-18T12:24:52Z</time>
      </trkpt>
      <trkpt lat="43.74616" lon="1.99381">
        <ele>210.67</ele>
        <time>2017-01-18T12:25:05Z</time>
      </trkpt>
      <trkpt lat="43.74599" lon="1.99394">
        <ele>211.15</ele>
        <time>2017-01-18T12:25:20Z</time>
      </trkpt>
      <trkpt lat="43.74585" lon="1.99401">
        <ele>211.15</ele>
        <time>2017-01-18T12:25:31Z</time>
      </trkpt>
      <trkpt lat="43.74572" lon="1.99411">
        <ele>211.15</ele>
        <time>2017-01-18T12:25:45Z</time>
      </trkpt>
      <trkpt lat="43.74559" lon="1.99421">
        <ele>211.63</ele>
        <time>2017-01-18T12:25:59Z</time>
      </trkpt>
      <trkpt lat="43.74545" lon="1.99428">
        <ele>211.63</ele>
        <time>2017-01-18T12:26:13Z</time>
      </trkpt>
      <trkpt lat="43.7453" lon="1.99433">
        <ele>209.7</ele>
        <time>2017-01-18T12:26:28Z</time>
      </trkpt>
      <trkpt lat="43.74515" lon="1.99435">
        <ele>208.74</ele>
        <time>2017-01-18T12:26:44Z</time>
      </trkpt>
      <trkpt lat="43.74504" lon="1.99437">
        <ele>206.82</ele>
        <time>2017-01-18T12:26:55Z</time>
      </trkpt>
      <trkpt lat="43.74487" lon="1.99432">
        <ele>205.86</ele>
        <time>2017-01-18T12:27:09Z</time>
      </trkpt>
      <trkpt lat="43.7447" lon="1.99423">
        <ele>205.86</ele>
        <time>2017-01-18T12:27:23Z</time>
      </trkpt>
      <trkpt lat="43.74465" lon="1.99423">
        <ele>206.82</ele>
        <time>2017-01-18T12:27:27Z</time>
      </trkpt>
      <trkpt lat="43.74455" lon="1.99432">
        <ele>210.67</ele>
        <time>2017-01-18T12:27:40Z</time>
      </trkpt>
      <trkpt lat="43.74445" lon="1.9944">
        <ele>211.15</ele>
        <time>2017-01-18T12:27:53Z</time>
      </trkpt>
      <trkpt lat="43.74435" lon="1.9945">
        <ele>212.11</ele>
        <time>2017-01-18T12:28:07Z</time>
      </trkpt>
      <trkpt lat="43.74427" lon="1.99459">
        <ele>213.07</ele>
        <time>2017-01-18T12:28:23Z</time>
      </trkpt>
      <trkpt lat="43.74416" lon="1.99468">
        <ele>214.51</ele>
        <time>2017-01-18T12:28:39Z</time>
      </trkpt>
      <trkpt lat="43.74405" lon="1.99479">
        <ele>216.91</ele>
        <time>2017-01-18T12:28:52Z</time>
      </trkpt>
      <trkpt lat="43.74391" lon="1.9949">
        <ele>220.28</ele>
        <time>2017-01-18T12:29:09Z</time>
      </trkpt>
      <trkpt lat="43.7438" lon="1.99501">
        <ele>221.72</ele>
        <time>2017-01-18T12:29:24Z</time>
      </trkpt>
      <trkpt lat="43.74369" lon="1.99516">
        <ele>223.64</ele>
        <time>2017-01-18T12:29:38Z</time>
      </trkpt>
      <trkpt lat="43.74367" lon="1.9952">
        <ele>224.61</ele>
        <time>2017-01-18T12:29:41Z</time>
      </trkpt>
      <trkpt lat="43.74359" lon="1.99541">
        <ele>225.57</ele>
        <time>2017-01-18T12:29:58Z</time>
      </trkpt>
      <trkpt lat="43.74351" lon="1.99566">
        <ele>227.97</ele>
        <time>2017-01-18T12:30:16Z</time>
      </trkpt>
      <trkpt lat="43.74345" lon="1.99586">
        <ele>228.45</ele>
        <time>2017-01-18T12:30:31Z</time>
      </trkpt>
      <trkpt lat="43.74337" lon="1.99607">
        <ele>229.41</ele>
        <time>2017-01-18T12:30:47Z</time>
      </trkpt>
      <trkpt lat="43.74321" lon="1.99627">
        <ele>229.41</ele>
        <time>2017-01-18T12:31:06Z</time>
      </trkpt>
      <trkpt lat="43.74307" lon="1.99634">
        <ele>229.41</ele>
        <time>2017-01-18T12:31:19Z</time>
      </trkpt>
      <trkpt lat="43.74291" lon="1.9964">
        <ele>229.89</ele>
        <time>2017-01-18T12:31:35Z</time>
      </trkpt>
      <trkpt lat="43.74284" lon="1.99642">
        <ele>229.89</ele>
        <time>2017-01-18T12:31:41Z</time>
      </trkpt>
      <trkpt lat="43.74268" lon="1.99649">
        <ele>228.93</ele>
        <time>2017-01-18T12:31:57Z</time>
      </trkpt>
      <trkpt lat="43.74252" lon="1.99655">
        <ele>230.85</ele>
        <time>2017-01-18T12:32:13Z</time>
      </trkpt>
      <trkpt lat="43.74237" lon="1.99662">
        <ele>229.89</ele>
        <time>2017-01-18T12:32:30Z</time>
      </trkpt>
      <trkpt lat="43.74223" lon="1.99669">
        <ele>229.41</ele>
        <time>2017-01-18T12:32:45Z</time>
      </trkpt>
      <trkpt lat="43.74209" lon="1.99675">
        <ele>230.85</ele>
        <time>2017-01-18T12:32:59Z</time>
      </trkpt>
      <trkpt lat="43.74204" lon="1.99664">
        <ele>231.81</ele>
        <time>2017-01-18T12:33:15Z</time>
      </trkpt>
      <trkpt lat="43.74205" lon="1.99663">
        <ele>231.81</ele>
        <time>2017-01-18T12:33:16Z</time>
      </trkpt>
      <trkpt lat="43.74211" lon="1.99644">
        <ele>231.33</ele>
        <time>2017-01-18T12:33:31Z</time>
      </trkpt>
      <trkpt lat="43.7422" lon="1.99625">
        <ele>231.81</ele>
        <time>2017-01-18T12:33:46Z</time>
      </trkpt>
      <trkpt lat="43.74227" lon="1.99606">
        <ele>231.33</ele>
        <time>2017-01-18T12:34:01Z</time>
      </trkpt>
      <trkpt lat="43.74236" lon="1.99588">
        <ele>233.74</ele>
        <time>2017-01-18T12:34:16Z</time>
      </trkpt>
      <trkpt lat="43.74246" lon="1.99566">
        <ele>236.62</ele>
        <time>2017-01-18T12:34:34Z</time>
      </trkpt>
      <trkpt lat="43.74253" lon="1.99542">
        <ele>239.02</ele>
        <time>2017-01-18T12:34:52Z</time>
      </trkpt>
      <trkpt lat="43.74258" lon="1.99518">
        <ele>239.99</ele>
        <time>2017-01-18T12:35:08Z</time>
      </trkpt>
      <trkpt lat="43.74263" lon="1.99492">
        <ele>238.54</ele>
        <time>2017-01-18T12:35:26Z</time>
      </trkpt>
      <trkpt lat="43.74268" lon="1.99471">
        <ele>239.02</ele>
        <time>2017-01-18T12:35:41Z</time>
      </trkpt>
      <trkpt lat="43.74277" lon="1.99457">
        <ele>239.51</ele>
        <time>2017-01-18T12:35:54Z</time>
      </trkpt>
      <trkpt lat="43.7429" lon="1.99438">
        <ele>243.35</ele>
        <time>2017-01-18T12:36:12Z</time>
      </trkpt>
      <trkpt lat="43.74302" lon="1.99425">
        <ele>244.31</ele>
        <time>2017-01-18T12:36:26Z</time>
      </trkpt>
      <trkpt lat="43.74313" lon="1.99412">
        <ele>244.79</ele>
        <time>2017-01-18T12:36:38Z</time>
      </trkpt>
      <trkpt lat="43.74325" lon="1.99394">
        <ele>244.79</ele>
        <time>2017-01-18T12:36:53Z</time>
      </trkpt>
      <trkpt lat="43.7434" lon="1.99376">
        <ele>245.27</ele>
        <time>2017-01-18T12:37:09Z</time>
      </trkpt>
      <trkpt lat="43.7435" lon="1.99362">
        <ele>246.72</ele>
        <time>2017-01-18T12:37:22Z</time>
      </trkpt>
      <trkpt lat="43.74361" lon="1.99348">
        <ele>246.23</ele>
        <time>2017-01-18T12:37:35Z</time>
      </trkpt>
      <trkpt lat="43.74375" lon="1.99333">
        <ele>244.79</ele>
        <time>2017-01-18T12:37:49Z</time>
      </trkpt>
      <trkpt lat="43.74388" lon="1.99318">
        <ele>242.39</ele>
        <time>2017-01-18T12:38:03Z</time>
      </trkpt>
      <trkpt lat="43.74406" lon="1.99303">
        <ele>240.95</ele>
        <time>2017-01-18T12:38:21Z</time>
      </trkpt>
      <trkpt lat="43.74419" lon="1.99294">
        <ele>241.43</ele>
        <time>2017-01-18T12:38:34Z</time>
      </trkpt>
      <trkpt lat="43.74431" lon="1.99286">
        <ele>240.95</ele>
        <time>2017-01-18T12:38:47Z</time>
      </trkpt>
      <trkpt lat="43.7444" lon="1.99279">
        <ele>237.1</ele>
        <time>2017-01-18T12:39:01Z</time>
      </trkpt>
      <trkpt lat="43.74435" lon="1.99265">
        <ele>237.58</ele>
        <time>2017-01-18T12:39:13Z</time>
      </trkpt>
      <trkpt lat="43.74428" lon="1.99245">
        <ele>236.14</ele>
        <time>2017-01-18T12:39:30Z</time>
      </trkpt>
      <trkpt lat="43.74423" lon="1.99231">
        <ele>235.66</ele>
        <time>2017-01-18T12:39:44Z</time>
      </trkpt>
      <trkpt lat="43.74417" lon="1.99216">
        <ele>236.14</ele>
        <time>2017-01-18T12:40:00Z</time>
      </trkpt>
      <trkpt lat="43.74412" lon="1.99203">
        <ele>237.58</ele>
        <time>2017-01-18T12:40:15Z</time>
      </trkpt>
      <trkpt lat="43.74406" lon="1.9919">
        <ele>238.54</ele>
        <time>2017-01-18T12:40:29Z</time>
      </trkpt>
      <trkpt lat="43.74401" lon="1.99178">
        <ele>238.06</ele>
        <time>2017-01-18T12:40:44Z</time>
      </trkpt>
      <trkpt lat="43.74394" lon="1.99163">
        <ele>238.54</ele>
        <time>2017-01-18T12:40:59Z</time>
      </trkpt>
      <trkpt lat="43.74382" lon="1.99147">
        <ele>244.31</ele>
        <time>2017-01-18T12:41:17Z</time>
      </trkpt>
      <trkpt lat="43.7437" lon="1.99132">
        <ele>249.12</ele>
        <time>2017-01-18T12:41:33Z</time>
      </trkpt>
      <trkpt lat="43.7436" lon="1.99118">
        <ele>251.52</ele>
        <time>2017-01-18T12:41:49Z</time>
      </trkpt>
      <trkpt lat="43.74349" lon="1.99106">
        <ele>252</ele>
        <time>2017-01-18T12:42:05Z</time>
      </trkpt>
      <trkpt lat="43.7434" lon="1.99091">
        <ele>253.44</ele>
        <time>2017-01-18T12:42:22Z</time>
      </trkpt>
      <trkpt lat="43.74342" lon="1.99082">
        <ele>253.93</ele>
        <time>2017-01-18T12:42:33Z</time>
      </trkpt>
      <trkpt lat="43.74356" lon="1.99065">
        <ele>252.96</ele>
        <time>2017-01-18T12:42:50Z</time>
      </trkpt>
      <trkpt lat="43.74368" lon="1.9905">
        <ele>252.48</ele>
        <time>2017-01-18T12:43:05Z</time>
      </trkpt>
      <trkpt lat="43.7438" lon="1.99033">
        <ele>251.52</ele>
        <time>2017-01-18T12:43:21Z</time>
      </trkpt>
      <trkpt lat="43.74395" lon="1.99012">
        <ele>251.52</ele>
        <time>2017-01-18T12:43:39Z</time>
      </trkpt>
      <trkpt lat="43.74408" lon="1.98993">
        <ele>252.48</ele>
        <time>2017-01-18T12:43:56Z</time>
      </trkpt>
      <trkpt lat="43.7442" lon="1.98977">
        <ele>251.04</ele>
        <time>2017-01-18T12:44:12Z</time>
      </trkpt>
      <trkpt lat="43.74434" lon="1.98958">
        <ele>251.52</ele>
        <time>2017-01-18T12:44:28Z</time>
      </trkpt>
      <trkpt lat="43.74448" lon="1.9894">
        <ele>252</ele>
        <time>2017-01-18T12:44:45Z</time>
      </trkpt>
      <trkpt lat="43.74449" lon="1.98939">
        <ele>252</ele>
        <time>2017-01-18T12:44:46Z</time>
      </trkpt>
      <trkpt lat="43.74465" lon="1.98917">
        <ele>250.56</ele>
        <time>2017-01-18T12:45:06Z</time>
      </trkpt>
      <trkpt lat="43.7448" lon="1.98898">
        <ele>249.6</ele>
        <time>2017-01-18T12:45:23Z</time>
      </trkpt>
      <trkpt lat="43.74494" lon="1.9888">
        <ele>250.08</ele>
        <time>2017-01-18T12:45:40Z</time>
      </trkpt>
      <trkpt lat="43.7451" lon="1.98861">
        <ele>249.12</ele>
        <time>2017-01-18T12:45:58Z</time>
      </trkpt>
      <trkpt lat="43.74526" lon="1.98847">
        <ele>248.16</ele>
        <time>2017-01-18T12:46:15Z</time>
      </trkpt>
      <trkpt lat="43.74547" lon="1.98827">
        <ele>247.68</ele>
        <time>2017-01-18T12:46:37Z</time>
      </trkpt>
      <trkpt lat="43.74564" lon="1.9881">
        <ele>246.23</ele>
        <time>2017-01-18T12:46:56Z</time>
      </trkpt>
      <trkpt lat="43.74582" lon="1.98795">
        <ele>247.2</ele>
        <time>2017-01-18T12:47:14Z</time>
      </trkpt>
      <trkpt lat="43.74603" lon="1.98779">
        <ele>246.72</ele>
        <time>2017-01-18T12:47:35Z</time>
      </trkpt>
      <trkpt lat="43.74623" lon="1.98767">
        <ele>246.23</ele>
        <time>2017-01-18T12:47:54Z</time>
      </trkpt>
      <trkpt lat="43.7464" lon="1.98756">
        <ele>245.75</ele>
        <time>2017-01-18T12:48:11Z</time>
      </trkpt>
      <trkpt lat="43.74659" lon="1.98742">
        <ele>245.27</ele>
        <time>2017-01-18T12:48:30Z</time>
      </trkpt>
      <trkpt lat="43.74679" lon="1.98728">
        <ele>244.79</ele>
        <time>2017-01-18T12:48:51Z</time>
      </trkpt>
      <trkpt lat="43.74697" lon="1.98714">
        <ele>245.75</ele>
        <time>2017-01-18T12:49:08Z</time>
      </trkpt>
      <trkpt lat="43.74713" lon="1.98701">
        <ele>245.75</ele>
        <time>2017-01-18T12:49:25Z</time>
      </trkpt>
      <trkpt lat="43.74728" lon="1.98688">
        <ele>246.23</ele>
        <time>2017-01-18T12:49:41Z</time>
      </trkpt>
      <trkpt lat="43.74744" lon="1.98674">
        <ele>246.23</ele>
        <time>2017-01-18T12:49:58Z</time>
      </trkpt>
      <trkpt lat="43.74761" lon="1.98659">
        <ele>245.75</ele>
        <time>2017-01-18T12:50:16Z</time>
      </trkpt>
      <trkpt lat="43.74776" lon="1.98646">
        <ele>246.72</ele>
        <time>2017-01-18T12:50:32Z</time>
      </trkpt>
      <trkpt lat="43.74793" lon="1.98632">
        <ele>245.27</ele>
        <time>2017-01-18T12:50:50Z</time>
      </trkpt>
      <trkpt lat="43.7481" lon="1.98617">
        <ele>244.79</ele>
        <time>2017-01-18T12:51:08Z</time>
      </trkpt>
      <trkpt lat="43.74826" lon="1.98603">
        <ele>244.79</ele>
        <time>2017-01-18T12:51:25Z</time>
      </trkpt>
      <trkpt lat="43.74846" lon="1.98587">
        <ele>242.87</ele>
        <time>2017-01-18T12:51:45Z</time>
      </trkpt>
      <trkpt lat="43.74859" lon="1.98576">
        <ele>243.83</ele>
        <time>2017-01-18T12:52:00Z</time>
      </trkpt>
      <trkpt lat="43.74877" lon="1.98564">
        <ele>243.83</ele>
        <time>2017-01-18T12:52:17Z</time>
      </trkpt>
      <trkpt lat="43.74892" lon="1.98552">
        <ele>242.39</ele>
        <time>2017-01-18T12:52:34Z</time>
      </trkpt>
      <trkpt lat="43.7491" lon="1.98542">
        <ele>240.95</ele>
        <time>2017-01-18T12:52:51Z</time>
      </trkpt>
      <trkpt lat="43.74922" lon="1.98533">
        <ele>240.95</ele>
        <time>2017-01-18T12:53:05Z</time>
      </trkpt>
      <trkpt lat="43.74936" lon="1.98521">
        <ele>239.99</ele>
        <time>2017-01-18T12:53:20Z</time>
      </trkpt>
      <trkpt lat="43.74945" lon="1.98515">
        <ele>237.1</ele>
        <time>2017-01-18T12:53:31Z</time>
      </trkpt>
      <trkpt lat="43.7497" lon="1.98506">
        <ele>234.7</ele>
        <time>2017-01-18T12:53:46Z</time>
      </trkpt>
      <trkpt lat="43.74967" lon="1.98482">
        <ele>234.22</ele>
        <time>2017-01-18T12:54:02Z</time>
      </trkpt>
      <trkpt lat="43.74961" lon="1.98465">
        <ele>235.18</ele>
        <time>2017-01-18T12:54:16Z</time>
      </trkpt>
      <trkpt lat="43.74955" lon="1.98444">
        <ele>236.14</ele>
        <time>2017-01-18T12:54:31Z</time>
      </trkpt>
      <trkpt lat="43.7495" lon="1.98426">
        <ele>237.1</ele>
        <time>2017-01-18T12:54:44Z</time>
      </trkpt>
      <trkpt lat="43.74948" lon="1.9842">
        <ele>237.58</ele>
        <time>2017-01-18T12:54:48Z</time>
      </trkpt>
      <trkpt lat="43.74931" lon="1.98409">
        <ele>236.62</ele>
        <time>2017-01-18T12:55:05Z</time>
      </trkpt>
      <trkpt lat="43.74913" lon="1.98407">
        <ele>236.62</ele>
        <time>2017-01-18T12:55:20Z</time>
      </trkpt>
      <trkpt lat="43.74911" lon="1.98407">
        <ele>236.62</ele>
        <time>2017-01-18T12:55:23Z</time>
      </trkpt>
      <trkpt lat="43.74905" lon="1.98403">
        <ele>237.1</ele>
        <time>2017-01-18T12:55:28Z</time>
      </trkpt>
      <trkpt lat="43.74889" lon="1.98399">
        <ele>235.18</ele>
        <time>2017-01-18T12:55:42Z</time>
      </trkpt>
      <trkpt lat="43.74876" lon="1.98398">
        <ele>232.78</ele>
        <time>2017-01-18T12:55:55Z</time>
      </trkpt>
      <trkpt lat="43.74858" lon="1.98406">
        <ele>232.78</ele>
        <time>2017-01-18T12:56:12Z</time>
      </trkpt>
      <trkpt lat="43.74844" lon="1.98408">
        <ele>231.81</ele>
        <time>2017-01-18T12:56:25Z</time>
      </trkpt>
      <trkpt lat="43.7483" lon="1.98399">
        <ele>233.74</ele>
        <time>2017-01-18T12:56:39Z</time>
      </trkpt>
      <trkpt lat="43.74813" lon="1.98389">
        <ele>234.7</ele>
        <time>2017-01-18T12:56:54Z</time>
      </trkpt>
      <trkpt lat="43.748" lon="1.98384">
        <ele>230.85</ele>
        <time>2017-01-18T12:57:09Z</time>
      </trkpt>
      <trkpt lat="43.74786" lon="1.9838">
        <ele>227.01</ele>
        <time>2017-01-18T12:57:24Z</time>
      </trkpt>
      <trkpt lat="43.74772" lon="1.98382">
        <ele>223.64</ele>
        <time>2017-01-18T12:57:40Z</time>
      </trkpt>
      <trkpt lat="43.74761" lon="1.98384">
        <ele>220.76</ele>
        <time>2017-01-18T12:57:51Z</time>
      </trkpt>
      <trkpt lat="43.74748" lon="1.98387">
        <ele>219.8</ele>
        <time>2017-01-18T12:58:04Z</time>
      </trkpt>
      <trkpt lat="43.74732" lon="1.98391">
        <ele>217.88</ele>
        <time>2017-01-18T12:58:19Z</time>
      </trkpt>
      <trkpt lat="43.74715" lon="1.98393">
        <ele>214.51</ele>
        <time>2017-01-18T12:58:35Z</time>
      </trkpt>
      <trkpt lat="43.74701" lon="1.98395">
        <ele>214.03</ele>
        <time>2017-01-18T12:58:48Z</time>
      </trkpt>
      <trkpt lat="43.74684" lon="1.98397">
        <ele>211.63</ele>
        <time>2017-01-18T12:59:04Z</time>
      </trkpt>
      <trkpt lat="43.74668" lon="1.98394">
        <ele>211.15</ele>
        <time>2017-01-18T12:59:18Z</time>
      </trkpt>
      <trkpt lat="43.74649" lon="1.98394">
        <ele>210.67</ele>
        <time>2017-01-18T12:59:35Z</time>
      </trkpt>
      <trkpt lat="43.74636" lon="1.98397">
        <ele>210.19</ele>
        <time>2017-01-18T12:59:46Z</time>
      </trkpt>
      <trkpt lat="43.74634" lon="1.984">
        <ele>210.19</ele>
        <time>2017-01-18T12:59:49Z</time>
      </trkpt>
      <trkpt lat="43.74622" lon="1.98405">
        <ele>206.82</ele>
        <time>2017-01-18T13:00:02Z</time>
      </trkpt>
      <trkpt lat="43.74613" lon="1.98409">
        <ele>206.34</ele>
        <time>2017-01-18T13:00:10Z</time>
      </trkpt>
      <trkpt lat="43.74602" lon="1.98416">
        <ele>204.42</ele>
        <time>2017-01-18T13:00:22Z</time>
      </trkpt>
      <trkpt lat="43.74599" lon="1.98418">
        <ele>202.98</ele>
        <time>2017-01-18T13:00:25Z</time>
      </trkpt>
      <trkpt lat="43.74583" lon="1.98423">
        <ele>200.57</ele>
        <time>2017-01-18T13:00:40Z</time>
      </trkpt>
      <trkpt lat="43.74562" lon="1.98427">
        <ele>202.98</ele>
        <time>2017-01-18T13:00:58Z</time>
      </trkpt>
      <trkpt lat="43.74544" lon="1.98427">
        <ele>202.98</ele>
        <time>2017-01-18T13:01:13Z</time>
      </trkpt>
      <trkpt lat="43.7453" lon="1.98424">
        <ele>205.38</ele>
        <time>2017-01-18T13:01:27Z</time>
      </trkpt>
      <trkpt lat="43.74518" lon="1.98419">
        <ele>207.3</ele>
        <time>2017-01-18T13:01:39Z</time>
      </trkpt>
      <trkpt lat="43.74508" lon="1.98412">
        <ele>209.7</ele>
        <time>2017-01-18T13:01:52Z</time>
      </trkpt>
      <trkpt lat="43.745" lon="1.98401">
        <ele>214.99</ele>
        <time>2017-01-18T13:02:08Z</time>
      </trkpt>
      <trkpt lat="43.74492" lon="1.98394">
        <ele>216.91</ele>
        <time>2017-01-18T13:02:19Z</time>
      </trkpt>
      <trkpt lat="43.74483" lon="1.98394">
        <ele>217.4</ele>
        <time>2017-01-18T13:02:33Z</time>
      </trkpt>
      <trkpt lat="43.74473" lon="1.98396">
        <ele>220.28</ele>
        <time>2017-01-18T13:02:49Z</time>
      </trkpt>
      <trkpt lat="43.74462" lon="1.98401">
        <ele>219.8</ele>
        <time>2017-01-18T13:03:05Z</time>
      </trkpt>
      <trkpt lat="43.74453" lon="1.98412">
        <ele>220.28</ele>
        <time>2017-01-18T13:03:22Z</time>
      </trkpt>
      <trkpt lat="43.74445" lon="1.98419">
        <ele>221.24</ele>
        <time>2017-01-18T13:03:39Z</time>
      </trkpt>
      <trkpt lat="43.74432" lon="1.98426">
        <ele>223.64</ele>
        <time>2017-01-18T13:03:56Z</time>
      </trkpt>
      <trkpt lat="43.74421" lon="1.98435">
        <ele>226.05</ele>
        <time>2017-01-18T13:04:11Z</time>
      </trkpt>
      <trkpt lat="43.7441" lon="1.9844">
        <ele>225.57</ele>
        <time>2017-01-18T13:04:25Z</time>
      </trkpt>
      <trkpt lat="43.744" lon="1.9844">
        <ele>226.05</ele>
        <time>2017-01-18T13:04:39Z</time>
      </trkpt>
      <trkpt lat="43.74387" lon="1.98438">
        <ele>227.01</ele>
        <time>2017-01-18T13:04:55Z</time>
      </trkpt>
      <trkpt lat="43.74375" lon="1.98438">
        <ele>230.85</ele>
        <time>2017-01-18T13:05:09Z</time>
      </trkpt>
      <trkpt lat="43.7436" lon="1.98442">
        <ele>233.26</ele>
        <time>2017-01-18T13:05:27Z</time>
      </trkpt>
      <trkpt lat="43.74348" lon="1.98446">
        <ele>235.66</ele>
        <time>2017-01-18T13:05:42Z</time>
      </trkpt>
      <trkpt lat="43.74335" lon="1.98448">
        <ele>237.58</ele>
        <time>2017-01-18T13:05:59Z</time>
      </trkpt>
      <trkpt lat="43.74326" lon="1.9845">
        <ele>242.39</ele>
        <time>2017-01-18T13:06:15Z</time>
      </trkpt>
      <trkpt lat="43.74328" lon="1.98451">
        <ele>239.02</ele>
        <time>2017-01-18T13:06:47Z</time>
      </trkpt>
      <trkpt lat="43.74328" lon="1.98449">
        <ele>237.1</ele>
        <time>2017-01-18T13:07:16Z</time>
      </trkpt>
      <trkpt lat="43.74328" lon="1.98448">
        <ele>237.58</ele>
        <time>2017-01-18T13:07:39Z</time>
      </trkpt>
      <trkpt lat="43.74328" lon="1.98451">
        <ele>238.54</ele>
        <time>2017-01-18T13:07:59Z</time>
      </trkpt>
      <trkpt lat="43.74324" lon="1.98446">
        <ele>238.54</ele>
        <time>2017-01-18T13:08:12Z</time>
      </trkpt>
      <trkpt lat="43.7431" lon="1.98442">
        <ele>239.02</ele>
        <time>2017-01-18T13:08:28Z</time>
      </trkpt>
      <trkpt lat="43.74302" lon="1.98447">
        <ele>240.47</ele>
        <time>2017-01-18T13:08:42Z</time>
      </trkpt>
      <trkpt lat="43.74301" lon="1.98446">
        <ele>239.02</ele>
        <time>2017-01-18T13:08:58Z</time>
      </trkpt>
      <trkpt lat="43.74301" lon="1.98446">
        <ele>239.99</ele>
        <time>2017-01-18T13:09:16Z</time>
      </trkpt>
      <trkpt lat="43.743" lon="1.98445">
        <ele>241.91</ele>
        <time>2017-01-18T13:09:40Z</time>
      </trkpt>
      <trkpt lat="43.74295" lon="1.98446">
        <ele>241.43</ele>
        <time>2017-01-18T13:09:47Z</time>
      </trkpt>
      <trkpt lat="43.74296" lon="1.98442">
        <ele>244.31</ele>
        <time>2017-01-18T13:10:00Z</time>
      </trkpt>
      <trkpt lat="43.74291" lon="1.98446">
        <ele>244.31</ele>
        <time>2017-01-18T13:10:10Z</time>
      </trkpt>
      <trkpt lat="43.74275" lon="1.98447">
        <ele>246.72</ele>
        <time>2017-01-18T13:10:27Z</time>
      </trkpt>
      <trkpt lat="43.7426" lon="1.98447">
        <ele>247.2</ele>
        <time>2017-01-18T13:10:43Z</time>
      </trkpt>
      <trkpt lat="43.74246" lon="1.98448">
        <ele>249.12</ele>
        <time>2017-01-18T13:11:00Z</time>
      </trkpt>
      <trkpt lat="43.74233" lon="1.98444">
        <ele>248.64</ele>
        <time>2017-01-18T13:11:17Z</time>
      </trkpt>
      <trkpt lat="43.7422" lon="1.98443">
        <ele>251.04</ele>
        <time>2017-01-18T13:11:35Z</time>
      </trkpt>
      <trkpt lat="43.74209" lon="1.98446">
        <ele>252.48</ele>
        <time>2017-01-18T13:11:51Z</time>
      </trkpt>
      <trkpt lat="43.74199" lon="1.98453">
        <ele>255.37</ele>
        <time>2017-01-18T13:12:08Z</time>
      </trkpt>
      <trkpt lat="43.74192" lon="1.98458">
        <ele>258.25</ele>
        <time>2017-01-18T13:12:23Z</time>
      </trkpt>
      <trkpt lat="43.74182" lon="1.98462">
        <ele>258.73</ele>
        <time>2017-01-18T13:12:41Z</time>
      </trkpt>
      <trkpt lat="43.74174" lon="1.98469">
        <ele>261.14</ele>
        <time>2017-01-18T13:12:58Z</time>
      </trkpt>
      <trkpt lat="43.74166" lon="1.98472">
        <ele>262.58</ele>
        <time>2017-01-18T13:13:12Z</time>
      </trkpt>
      <trkpt lat="43.74155" lon="1.98474">
        <ele>265.46</ele>
        <time>2017-01-18T13:13:28Z</time>
      </trkpt>
      <trkpt lat="43.74143" lon="1.98477">
        <ele>265.46</ele>
        <time>2017-01-18T13:13:45Z</time>
      </trkpt>
      <trkpt lat="43.74142" lon="1.98485">
        <ele>264.98</ele>
        <time>2017-01-18T13:13:59Z</time>
      </trkpt>
      <trkpt lat="43.74144" lon="1.98488">
        <ele>264.5</ele>
        <time>2017-01-18T13:14:27Z</time>
      </trkpt>
      <trkpt lat="43.74143" lon="1.98487">
        <ele>264.98</ele>
        <time>2017-01-18T13:14:54Z</time>
      </trkpt>
      <trkpt lat="43.74142" lon="1.98487">
        <ele>265.94</ele>
        <time>2017-01-18T13:15:16Z</time>
      </trkpt>
      <trkpt lat="43.74143" lon="1.98492">
        <ele>264.98</ele>
        <time>2017-01-18T13:15:49Z</time>
      </trkpt>
      <trkpt lat="43.74142" lon="1.98493">
        <ele>264.98</ele>
        <time>2017-01-18T13:16:23Z</time>
      </trkpt>
      <trkpt lat="43.74141" lon="1.98492">
        <ele>264.5</ele>
        <time>2017-01-18T13:16:59Z</time>
      </trkpt>
      <trkpt lat="43.74142" lon="1.9849">
        <ele>263.06</ele>
        <time>2017-01-18T13:17:18Z</time>
      </trkpt>
      <trkpt lat="43.74143" lon="1.98491">
        <ele>260.65</ele>
        <time>2017-01-18T13:17:54Z</time>
      </trkpt>
      <trkpt lat="43.74145" lon="1.98486">
        <ele>262.1</ele>
        <time>2017-01-18T13:18:32Z</time>
      </trkpt>
      <trkpt lat="43.74145" lon="1.98489">
        <ele>262.1</ele>
        <time>2017-01-18T13:18:48Z</time>
      </trkpt>
      <trkpt lat="43.74143" lon="1.98488">
        <ele>264.98</ele>
        <time>2017-01-18T13:19:07Z</time>
      </trkpt>
      <trkpt lat="43.74137" lon="1.9849">
        <ele>264.98</ele>
        <time>2017-01-18T13:19:21Z</time>
      </trkpt>
      <trkpt lat="43.74128" lon="1.98498">
        <ele>264.02</ele>
        <time>2017-01-18T13:19:32Z</time>
      </trkpt>
      <trkpt lat="43.74113" lon="1.9851">
        <ele>264.02</ele>
        <time>2017-01-18T13:19:49Z</time>
      </trkpt>
      <trkpt lat="43.74107" lon="1.98514">
        <ele>264.98</ele>
        <time>2017-01-18T13:19:55Z</time>
      </trkpt>
      <trkpt lat="43.74087" lon="1.98531">
        <ele>267.38</ele>
        <time>2017-01-18T13:20:13Z</time>
      </trkpt>
      <trkpt lat="43.74075" lon="1.98544">
        <ele>267.38</ele>
        <time>2017-01-18T13:20:28Z</time>
      </trkpt>
      <trkpt lat="43.7406" lon="1.9856">
        <ele>268.35</ele>
        <time>2017-01-18T13:20:45Z</time>
      </trkpt>
      <trkpt lat="43.74048" lon="1.98573">
        <ele>267.38</ele>
        <time>2017-01-18T13:20:59Z</time>
      </trkpt>
      <trkpt lat="43.7403" lon="1.98589">
        <ele>269.31</ele>
        <time>2017-01-18T13:21:17Z</time>
      </trkpt>
      <trkpt lat="43.74015" lon="1.98603">
        <ele>272.19</ele>
        <time>2017-01-18T13:21:32Z</time>
      </trkpt>
      <trkpt lat="43.73998" lon="1.98621">
        <ele>272.19</ele>
        <time>2017-01-18T13:21:51Z</time>
      </trkpt>
      <trkpt lat="43.73985" lon="1.98634">
        <ele>272.67</ele>
        <time>2017-01-18T13:22:06Z</time>
      </trkpt>
      <trkpt lat="43.73968" lon="1.98649">
        <ele>271.71</ele>
        <time>2017-01-18T13:22:24Z</time>
      </trkpt>
      <trkpt lat="43.73959" lon="1.98654">
        <ele>272.67</ele>
        <time>2017-01-18T13:22:34Z</time>
      </trkpt>
      <trkpt lat="43.73955" lon="1.98651">
        <ele>273.15</ele>
        <time>2017-01-18T13:22:39Z</time>
      </trkpt>
      <trkpt lat="43.73955" lon="1.98652">
        <ele>273.63</ele>
        <time>2017-01-18T13:22:51Z</time>
      </trkpt>
      <trkpt lat="43.73968" lon="1.98624">
        <ele>272.19</ele>
        <time>2017-01-18T13:23:13Z</time>
      </trkpt>
      <trkpt lat="43.73977" lon="1.98602">
        <ele>270.27</ele>
        <time>2017-01-18T13:23:29Z</time>
      </trkpt>
      <trkpt lat="43.73986" lon="1.98577">
        <ele>268.83</ele>
        <time>2017-01-18T13:23:47Z</time>
      </trkpt>
      <trkpt lat="43.73991" lon="1.98552">
        <ele>267.86</ele>
        <time>2017-01-18T13:24:04Z</time>
      </trkpt>
      <trkpt lat="43.73997" lon="1.98536">
        <ele>266.42</ele>
        <time>2017-01-18T13:24:18Z</time>
      </trkpt>
      <trkpt lat="43.73998" lon="1.98532">
        <ele>266.42</ele>
        <time>2017-01-18T13:24:22Z</time>
      </trkpt>
      <trkpt lat="43.74002" lon="1.98511">
        <ele>266.42</ele>
        <time>2017-01-18T13:24:36Z</time>
      </trkpt>
      <trkpt lat="43.74003" lon="1.98486">
        <ele>265.94</ele>
        <time>2017-01-18T13:24:50Z</time>
      </trkpt>
      <trkpt lat="43.73999" lon="1.98475">
        <ele>264.5</ele>
        <time>2017-01-18T13:24:57Z</time>
      </trkpt>
      <trkpt lat="43.7398" lon="1.98466">
        <ele>262.58</ele>
        <time>2017-01-18T13:25:14Z</time>
      </trkpt>
      <trkpt lat="43.73959" lon="1.9847">
        <ele>260.65</ele>
        <time>2017-01-18T13:25:32Z</time>
      </trkpt>
      <trkpt lat="43.73953" lon="1.98465">
        <ele>259.69</ele>
        <time>2017-01-18T13:25:39Z</time>
      </trkpt>
      <trkpt lat="43.73958" lon="1.98443">
        <ele>255.85</ele>
        <time>2017-01-18T13:25:56Z</time>
      </trkpt>
      <trkpt lat="43.73959" lon="1.98441">
        <ele>255.85</ele>
        <time>2017-01-18T13:25:58Z</time>
      </trkpt>
      <trkpt lat="43.73971" lon="1.98423">
        <ele>252.48</ele>
        <time>2017-01-18T13:26:15Z</time>
      </trkpt>
      <trkpt lat="43.73982" lon="1.98402">
        <ele>250.08</ele>
        <time>2017-01-18T13:26:30Z</time>
      </trkpt>
      <trkpt lat="43.73984" lon="1.98398">
        <ele>249.6</ele>
        <time>2017-01-18T13:26:33Z</time>
      </trkpt>
      <trkpt lat="43.73992" lon="1.98375">
        <ele>246.72</ele>
        <time>2017-01-18T13:26:49Z</time>
      </trkpt>
      <trkpt lat="43.73997" lon="1.98355">
        <ele>244.79</ele>
        <time>2017-01-18T13:27:02Z</time>
      </trkpt>
      <trkpt lat="43.74005" lon="1.98332">
        <ele>241.91</ele>
        <time>2017-01-18T13:27:18Z</time>
      </trkpt>
      <trkpt lat="43.74015" lon="1.98311">
        <ele>238.06</ele>
        <time>2017-01-18T13:27:35Z</time>
      </trkpt>
      <trkpt lat="43.74031" lon="1.98294">
        <ele>236.62</ele>
        <time>2017-01-18T13:27:51Z</time>
      </trkpt>
      <trkpt lat="43.74048" lon="1.98277">
        <ele>234.7</ele>
        <time>2017-01-18T13:28:08Z</time>
      </trkpt>
      <trkpt lat="43.74063" lon="1.98255">
        <ele>232.3</ele>
        <time>2017-01-18T13:28:26Z</time>
      </trkpt>
      <trkpt lat="43.74068" lon="1.98245">
        <ele>230.85</ele>
        <time>2017-01-18T13:28:33Z</time>
      </trkpt>
      <trkpt lat="43.74072" lon="1.98234">
        <ele>229.89</ele>
        <time>2017-01-18T13:28:41Z</time>
      </trkpt>
      <trkpt lat="43.74075" lon="1.98211">
        <ele>228.93</ele>
        <time>2017-01-18T13:28:55Z</time>
      </trkpt>
      <trkpt lat="43.74074" lon="1.9818">
        <ele>226.53</ele>
        <time>2017-01-18T13:29:14Z</time>
      </trkpt>
      <trkpt lat="43.7407" lon="1.9815">
        <ele>225.57</ele>
        <time>2017-01-18T13:29:32Z</time>
      </trkpt>
      <trkpt lat="43.74066" lon="1.9813">
        <ele>223.16</ele>
        <time>2017-01-18T13:29:45Z</time>
      </trkpt>
      <trkpt lat="43.74061" lon="1.981">
        <ele>225.57</ele>
        <time>2017-01-18T13:30:01Z</time>
      </trkpt>
      <trkpt lat="43.74055" lon="1.98078">
        <ele>226.05</ele>
        <time>2017-01-18T13:30:16Z</time>
      </trkpt>
      <trkpt lat="43.74051" lon="1.98057">
        <ele>227.01</ele>
        <time>2017-01-18T13:30:32Z</time>
      </trkpt>
      <trkpt lat="43.74054" lon="1.98035">
        <ele>228.45</ele>
        <time>2017-01-18T13:30:51Z</time>
      </trkpt>
      <trkpt lat="43.74058" lon="1.98018">
        <ele>227.97</ele>
        <time>2017-01-18T13:31:05Z</time>
      </trkpt>
      <trkpt lat="43.74062" lon="1.97999">
        <ele>228.45</ele>
        <time>2017-01-18T13:31:21Z</time>
      </trkpt>
      <trkpt lat="43.74067" lon="1.9799">
        <ele>229.89</ele>
        <time>2017-01-18T13:31:34Z</time>
      </trkpt>
      <trkpt lat="43.74073" lon="1.97977">
        <ele>228.45</ele>
        <time>2017-01-18T13:31:49Z</time>
      </trkpt>
      <trkpt lat="43.74076" lon="1.97975">
        <ele>229.41</ele>
        <time>2017-01-18T13:31:51Z</time>
      </trkpt>
      <trkpt lat="43.74092" lon="1.97965">
        <ele>234.7</ele>
        <time>2017-01-18T13:32:06Z</time>
      </trkpt>
      <trkpt lat="43.74105" lon="1.97954">
        <ele>234.22</ele>
        <time>2017-01-18T13:32:21Z</time>
      </trkpt>
      <trkpt lat="43.7412" lon="1.97937">
        <ele>234.7</ele>
        <time>2017-01-18T13:32:39Z</time>
      </trkpt>
      <trkpt lat="43.7413" lon="1.97923">
        <ele>233.26</ele>
        <time>2017-01-18T13:32:54Z</time>
      </trkpt>
      <trkpt lat="43.74131" lon="1.97921">
        <ele>232.78</ele>
        <time>2017-01-18T13:32:56Z</time>
      </trkpt>
      <trkpt lat="43.74144" lon="1.97908">
        <ele>232.3</ele>
        <time>2017-01-18T13:33:11Z</time>
      </trkpt>
      <trkpt lat="43.74155" lon="1.97893">
        <ele>232.78</ele>
        <time>2017-01-18T13:33:26Z</time>
      </trkpt>
      <trkpt lat="43.74165" lon="1.9788">
        <ele>234.7</ele>
        <time>2017-01-18T13:33:41Z</time>
      </trkpt>
      <trkpt lat="43.74179" lon="1.97866">
        <ele>239.51</ele>
        <time>2017-01-18T13:33:57Z</time>
      </trkpt>
      <trkpt lat="43.74188" lon="1.97861">
        <ele>241.91</ele>
        <time>2017-01-18T13:34:09Z</time>
      </trkpt>
      <trkpt lat="43.74195" lon="1.97866">
        <ele>241.43</ele>
        <time>2017-01-18T13:34:27Z</time>
      </trkpt>
      <trkpt lat="43.74204" lon="1.97874">
        <ele>239.51</ele>
        <time>2017-01-18T13:34:36Z</time>
      </trkpt>
      <trkpt lat="43.74214" lon="1.97883">
        <ele>236.14</ele>
        <time>2017-01-18T13:34:47Z</time>
      </trkpt>
      <trkpt lat="43.74225" lon="1.97889">
        <ele>232.3</ele>
        <time>2017-01-18T13:34:59Z</time>
      </trkpt>
      <trkpt lat="43.7423" lon="1.97892">
        <ele>231.33</ele>
        <time>2017-01-18T13:35:03Z</time>
      </trkpt>
      <trkpt lat="43.74235" lon="1.97895">
        <ele>231.81</ele>
        <time>2017-01-18T13:35:09Z</time>
      </trkpt>
      <trkpt lat="43.74253" lon="1.979">
        <ele>230.85</ele>
        <time>2017-01-18T13:35:25Z</time>
      </trkpt>
      <trkpt lat="43.74256" lon="1.97902">
        <ele>230.85</ele>
        <time>2017-01-18T13:35:28Z</time>
      </trkpt>
      <trkpt lat="43.74276" lon="1.97905">
        <ele>229.41</ele>
        <time>2017-01-18T13:35:43Z</time>
      </trkpt>
      <trkpt lat="43.74285" lon="1.97905">
        <ele>230.37</ele>
        <time>2017-01-18T13:35:54Z</time>
      </trkpt>
      <trkpt lat="43.74288" lon="1.97905">
        <ele>231.33</ele>
        <time>2017-01-18T13:35:56Z</time>
      </trkpt>
      <trkpt lat="43.74301" lon="1.97904">
        <ele>234.22</ele>
        <time>2017-01-18T13:36:09Z</time>
      </trkpt>
      <trkpt lat="43.74321" lon="1.97902">
        <ele>236.62</ele>
        <time>2017-01-18T13:36:24Z</time>
      </trkpt>
      <trkpt lat="43.74327" lon="1.97902">
        <ele>236.14</ele>
        <time>2017-01-18T13:36:29Z</time>
      </trkpt>
      <trkpt lat="43.74336" lon="1.97904">
        <ele>236.62</ele>
        <time>2017-01-18T13:36:37Z</time>
      </trkpt>
      <trkpt lat="43.74353" lon="1.97907">
        <ele>237.58</ele>
        <time>2017-01-18T13:36:53Z</time>
      </trkpt>
      <trkpt lat="43.74368" lon="1.97908">
        <ele>234.7</ele>
        <time>2017-01-18T13:37:10Z</time>
      </trkpt>
      <trkpt lat="43.74386" lon="1.97915">
        <ele>231.33</ele>
        <time>2017-01-18T13:37:25Z</time>
      </trkpt>
      <trkpt lat="43.74402" lon="1.97922">
        <ele>230.37</ele>
        <time>2017-01-18T13:37:41Z</time>
      </trkpt>
      <trkpt lat="43.74407" lon="1.97925">
        <ele>230.85</ele>
        <time>2017-01-18T13:37:46Z</time>
      </trkpt>
      <trkpt lat="43.74423" lon="1.97936">
        <ele>231.33</ele>
        <time>2017-01-18T13:38:03Z</time>
      </trkpt>
      <trkpt lat="43.7444" lon="1.97943">
        <ele>229.89</ele>
        <time>2017-01-18T13:38:20Z</time>
      </trkpt>
      <trkpt lat="43.74458" lon="1.97952">
        <ele>227.49</ele>
        <time>2017-01-18T13:38:38Z</time>
      </trkpt>
      <trkpt lat="43.74463" lon="1.97954">
        <ele>226.05</ele>
        <time>2017-01-18T13:38:42Z</time>
      </trkpt>
      <trkpt lat="43.74483" lon="1.97963">
        <ele>222.2</ele>
        <time>2017-01-18T13:38:59Z</time>
      </trkpt>
      <trkpt lat="43.74492" lon="1.97975">
        <ele>220.76</ele>
        <time>2017-01-18T13:39:12Z</time>
      </trkpt>
      <trkpt lat="43.74503" lon="1.97988">
        <ele>222.2</ele>
        <time>2017-01-18T13:39:26Z</time>
      </trkpt>
      <trkpt lat="43.74516" lon="1.98005">
        <ele>223.16</ele>
        <time>2017-01-18T13:39:40Z</time>
      </trkpt>
      <trkpt lat="43.74524" lon="1.98019">
        <ele>223.64</ele>
        <time>2017-01-18T13:39:55Z</time>
      </trkpt>
      <trkpt lat="43.74538" lon="1.98034">
        <ele>224.61</ele>
        <time>2017-01-18T13:40:09Z</time>
      </trkpt>
      <trkpt lat="43.74554" lon="1.98042">
        <ele>224.61</ele>
        <time>2017-01-18T13:40:25Z</time>
      </trkpt>
      <trkpt lat="43.74568" lon="1.9805">
        <ele>227.01</ele>
        <time>2017-01-18T13:40:39Z</time>
      </trkpt>
      <trkpt lat="43.74581" lon="1.98057">
        <ele>228.93</ele>
        <time>2017-01-18T13:40:51Z</time>
      </trkpt>
      <trkpt lat="43.74596" lon="1.98069">
        <ele>232.3</ele>
        <time>2017-01-18T13:41:06Z</time>
      </trkpt>
      <trkpt lat="43.74612" lon="1.98072">
        <ele>233.74</ele>
        <time>2017-01-18T13:41:20Z</time>
      </trkpt>
      <trkpt lat="43.74626" lon="1.98076">
        <ele>234.22</ele>
        <time>2017-01-18T13:41:34Z</time>
      </trkpt>
      <trkpt lat="43.74645" lon="1.9808">
        <ele>232.3</ele>
        <time>2017-01-18T13:41:50Z</time>
      </trkpt>
      <trkpt lat="43.74656" lon="1.98082">
        <ele>231.33</ele>
        <time>2017-01-18T13:42:01Z</time>
      </trkpt>
      <trkpt lat="43.74676" lon="1.98086">
        <ele>227.97</ele>
        <time>2017-01-18T13:42:18Z</time>
      </trkpt>
      <trkpt lat="43.74687" lon="1.98087">
        <ele>227.01</ele>
        <time>2017-01-18T13:42:30Z</time>
      </trkpt>
      <trkpt lat="43.74703" lon="1.98087">
        <ele>225.09</ele>
        <time>2017-01-18T13:42:43Z</time>
      </trkpt>
      <trkpt lat="43.74719" lon="1.98089">
        <ele>225.57</ele>
        <time>2017-01-18T13:42:58Z</time>
      </trkpt>
      <trkpt lat="43.74734" lon="1.98089">
        <ele>225.57</ele>
        <time>2017-01-18T13:43:13Z</time>
      </trkpt>
      <trkpt lat="43.74752" lon="1.9809">
        <ele>223.16</ele>
        <time>2017-01-18T13:43:28Z</time>
      </trkpt>
      <trkpt lat="43.74766" lon="1.98091">
        <ele>222.68</ele>
        <time>2017-01-18T13:43:41Z</time>
      </trkpt>
      <trkpt lat="43.74782" lon="1.98091">
        <ele>222.68</ele>
        <time>2017-01-18T13:43:55Z</time>
      </trkpt>
      <trkpt lat="43.74798" lon="1.9809">
        <ele>220.76</ele>
        <time>2017-01-18T13:44:09Z</time>
      </trkpt>
      <trkpt lat="43.74816" lon="1.98089">
        <ele>217.88</ele>
        <time>2017-01-18T13:44:24Z</time>
      </trkpt>
      <trkpt lat="43.74833" lon="1.9809">
        <ele>217.4</ele>
        <time>2017-01-18T13:44:41Z</time>
      </trkpt>
      <trkpt lat="43.74852" lon="1.9809">
        <ele>214.03</ele>
        <time>2017-01-18T13:44:58Z</time>
      </trkpt>
      <trkpt lat="43.74859" lon="1.98088">
        <ele>213.07</ele>
        <time>2017-01-18T13:45:11Z</time>
      </trkpt>
      <trkpt lat="43.74876" lon="1.98091">
        <ele>208.26</ele>
        <time>2017-01-18T13:45:27Z</time>
      </trkpt>
      <trkpt lat="43.74888" lon="1.98092">
        <ele>207.78</ele>
        <time>2017-01-18T13:45:40Z</time>
      </trkpt>
      <trkpt lat="43.74909" lon="1.98092">
        <ele>205.86</ele>
        <time>2017-01-18T13:45:59Z</time>
      </trkpt>
      <trkpt lat="43.74929" lon="1.98091">
        <ele>203.46</ele>
        <time>2017-01-18T13:46:18Z</time>
      </trkpt>
      <trkpt lat="43.74945" lon="1.9809">
        <ele>202.49</ele>
        <time>2017-01-18T13:46:34Z</time>
      </trkpt>
      <trkpt lat="43.74966" lon="1.98087">
        <ele>199.13</ele>
        <time>2017-01-18T13:46:53Z</time>
      </trkpt>
      <trkpt lat="43.7498" lon="1.98087">
        <ele>196.73</ele>
        <time>2017-01-18T13:47:10Z</time>
      </trkpt>
      <trkpt lat="43.74986" lon="1.98086">
        <ele>196.73</ele>
        <time>2017-01-18T13:47:26Z</time>
      </trkpt>
      <trkpt lat="43.74996" lon="1.98085">
        <ele>195.77</ele>
        <time>2017-01-18T13:47:40Z</time>
      </trkpt>
      <trkpt lat="43.75008" lon="1.98083">
        <ele>196.25</ele>
        <time>2017-01-18T13:47:56Z</time>
      </trkpt>
      <trkpt lat="43.75019" lon="1.98082">
        <ele>197.21</ele>
        <time>2017-01-18T13:48:11Z</time>
      </trkpt>
      <trkpt lat="43.75019" lon="1.98082">
        <ele>197.21</ele>
        <time>2017-01-18T13:48:12Z</time>
      </trkpt>
      <trkpt lat="43.75033" lon="1.9808">
        <ele>196.73</ele>
        <time>2017-01-18T13:48:27Z</time>
      </trkpt>
      <trkpt lat="43.75047" lon="1.98079">
        <ele>195.28</ele>
        <time>2017-01-18T13:48:41Z</time>
      </trkpt>
      <trkpt lat="43.75056" lon="1.98072">
        <ele>194.8</ele>
        <time>2017-01-18T13:48:58Z</time>
      </trkpt>
      <trkpt lat="43.75056" lon="1.98057">
        <ele>193.84</ele>
        <time>2017-01-18T13:49:12Z</time>
      </trkpt>
      <trkpt lat="43.75055" lon="1.98036">
        <ele>199.13</ele>
        <time>2017-01-18T13:49:28Z</time>
      </trkpt>
      <trkpt lat="43.75053" lon="1.98023">
        <ele>202.01</ele>
        <time>2017-01-18T13:49:39Z</time>
      </trkpt>
      <trkpt lat="43.75051" lon="1.98007">
        <ele>202.01</ele>
        <time>2017-01-18T13:49:55Z</time>
      </trkpt>
      <trkpt lat="43.75044" lon="1.97988">
        <ele>204.9</ele>
        <time>2017-01-18T13:50:12Z</time>
      </trkpt>
      <trkpt lat="43.75042" lon="1.97975">
        <ele>206.34</ele>
        <time>2017-01-18T13:50:26Z</time>
      </trkpt>
      <trkpt lat="43.75042" lon="1.97959">
        <ele>208.26</ele>
        <time>2017-01-18T13:50:41Z</time>
      </trkpt>
      <trkpt lat="43.75043" lon="1.97946">
        <ele>212.11</ele>
        <time>2017-01-18T13:50:57Z</time>
      </trkpt>
      <trkpt lat="43.75042" lon="1.97931">
        <ele>213.07</ele>
        <time>2017-01-18T13:51:10Z</time>
      </trkpt>
      <trkpt lat="43.75043" lon="1.97918">
        <ele>214.99</ele>
        <time>2017-01-18T13:51:23Z</time>
      </trkpt>
      <trkpt lat="43.75044" lon="1.97902">
        <ele>215.95</ele>
        <time>2017-01-18T13:51:37Z</time>
      </trkpt>
      <trkpt lat="43.75043" lon="1.97893">
        <ele>217.4</ele>
        <time>2017-01-18T13:51:48Z</time>
      </trkpt>
      <trkpt lat="43.75043" lon="1.9788">
        <ele>217.88</ele>
        <time>2017-01-18T13:52:02Z</time>
      </trkpt>
      <trkpt lat="43.75042" lon="1.97866">
        <ele>222.68</ele>
        <time>2017-01-18T13:52:16Z</time>
      </trkpt>
      <trkpt lat="43.75041" lon="1.97855">
        <ele>224.12</ele>
        <time>2017-01-18T13:52:29Z</time>
      </trkpt>
      <trkpt lat="43.7504" lon="1.97845">
        <ele>223.64</ele>
        <time>2017-01-18T13:52:42Z</time>
      </trkpt>
      <trkpt lat="43.75038" lon="1.97835">
        <ele>225.09</ele>
        <time>2017-01-18T13:52:53Z</time>
      </trkpt>
      <trkpt lat="43.75036" lon="1.97823">
        <ele>225.57</ele>
        <time>2017-01-18T13:53:08Z</time>
      </trkpt>
      <trkpt lat="43.75031" lon="1.97807">
        <ele>225.09</ele>
        <time>2017-01-18T13:53:22Z</time>
      </trkpt>
      <trkpt lat="43.75031" lon="1.97806">
        <ele>224.61</ele>
        <time>2017-01-18T13:53:23Z</time>
      </trkpt>
      <trkpt lat="43.75028" lon="1.97786">
        <ele>224.61</ele>
        <time>2017-01-18T13:53:38Z</time>
      </trkpt>
      <trkpt lat="43.75027" lon="1.97776">
        <ele>225.57</ele>
        <time>2017-01-18T13:53:49Z</time>
      </trkpt>
      <trkpt lat="43.75026" lon="1.97779">
        <ele>224.12</ele>
        <time>2017-01-18T13:54:09Z</time>
      </trkpt>
      <trkpt lat="43.75028" lon="1.9778">
        <ele>225.09</ele>
        <time>2017-01-18T13:54:32Z</time>
      </trkpt>
      <trkpt lat="43.75028" lon="1.97776">
        <ele>225.09</ele>
        <time>2017-01-18T13:54:50Z</time>
      </trkpt>
      <trkpt lat="43.75028" lon="1.97778">
        <ele>224.61</ele>
        <time>2017-01-18T13:55:04Z</time>
      </trkpt>
      <trkpt lat="43.75026" lon="1.97773">
        <ele>224.61</ele>
        <time>2017-01-18T13:55:23Z</time>
      </trkpt>
      <trkpt lat="43.75021" lon="1.97757">
        <ele>224.61</ele>
        <time>2017-01-18T13:55:37Z</time>
      </trkpt>
      <trkpt lat="43.75021" lon="1.97756">
        <ele>226.05</ele>
        <time>2017-01-18T13:55:52Z</time>
      </trkpt>
      <trkpt lat="43.75026" lon="1.97752">
        <ele>226.53</ele>
        <time>2017-01-18T13:56:05Z</time>
      </trkpt>
      <trkpt lat="43.75046" lon="1.97743">
        <ele>226.05</ele>
        <time>2017-01-18T13:56:23Z</time>
      </trkpt>
      <trkpt lat="43.75065" lon="1.97735">
        <ele>225.57</ele>
        <time>2017-01-18T13:56:41Z</time>
      </trkpt>
      <trkpt lat="43.75083" lon="1.97726">
        <ele>224.12</ele>
        <time>2017-01-18T13:56:58Z</time>
      </trkpt>
      <trkpt lat="43.751" lon="1.97719">
        <ele>224.12</ele>
        <time>2017-01-18T13:57:13Z</time>
      </trkpt>
      <trkpt lat="43.75116" lon="1.97713">
        <ele>225.57</ele>
        <time>2017-01-18T13:57:28Z</time>
      </trkpt>
      <trkpt lat="43.75132" lon="1.97707">
        <ele>225.09</ele>
        <time>2017-01-18T13:57:43Z</time>
      </trkpt>
      <trkpt lat="43.75149" lon="1.97703">
        <ele>223.64</ele>
        <time>2017-01-18T13:57:58Z</time>
      </trkpt>
      <trkpt lat="43.75168" lon="1.97699">
        <ele>223.16</ele>
        <time>2017-01-18T13:58:14Z</time>
      </trkpt>
      <trkpt lat="43.75183" lon="1.97694">
        <ele>223.64</ele>
        <time>2017-01-18T13:58:28Z</time>
      </trkpt>
      <trkpt lat="43.75203" lon="1.97689">
        <ele>221.72</ele>
        <time>2017-01-18T13:58:46Z</time>
      </trkpt>
      <trkpt lat="43.7522" lon="1.97682">
        <ele>218.84</ele>
        <time>2017-01-18T13:59:02Z</time>
      </trkpt>
      <trkpt lat="43.75238" lon="1.97675">
        <ele>220.76</ele>
        <time>2017-01-18T13:59:16Z</time>
      </trkpt>
      <trkpt lat="43.7525" lon="1.97673">
        <ele>217.88</ele>
        <time>2017-01-18T13:59:32Z</time>
      </trkpt>
      <trkpt lat="43.75252" lon="1.97674">
        <ele>213.55</ele>
        <time>2017-01-18T13:59:45Z</time>
      </trkpt>
      <trkpt lat="43.75256" lon="1.97667">
        <ele>214.03</ele>
        <time>2017-01-18T13:59:59Z</time>
      </trkpt>
      <trkpt lat="43.75273" lon="1.97658">
        <ele>216.43</ele>
        <time>2017-01-18T14:00:16Z</time>
      </trkpt>
      <trkpt lat="43.75292" lon="1.9765">
        <ele>217.4</ele>
        <time>2017-01-18T14:00:32Z</time>
      </trkpt>
      <trkpt lat="43.75308" lon="1.97642">
        <ele>215.95</ele>
        <time>2017-01-18T14:00:48Z</time>
      </trkpt>
      <trkpt lat="43.75327" lon="1.97634">
        <ele>214.51</ele>
        <time>2017-01-18T14:01:04Z</time>
      </trkpt>
      <trkpt lat="43.75348" lon="1.97623">
        <ele>214.99</ele>
        <time>2017-01-18T14:01:23Z</time>
      </trkpt>
      <trkpt lat="43.7537" lon="1.97612">
        <ele>215.95</ele>
        <time>2017-01-18T14:01:41Z</time>
      </trkpt>
      <trkpt lat="43.7539" lon="1.97601">
        <ele>216.43</ele>
        <time>2017-01-18T14:02:00Z</time>
      </trkpt>
      <trkpt lat="43.75408" lon="1.9759">
        <ele>217.4</ele>
        <time>2017-01-18T14:02:16Z</time>
      </trkpt>
      <trkpt lat="43.75427" lon="1.97577">
        <ele>217.4</ele>
        <time>2017-01-18T14:02:34Z</time>
      </trkpt>
      <trkpt lat="43.75438" lon="1.97568">
        <ele>217.88</ele>
        <time>2017-01-18T14:02:46Z</time>
      </trkpt>
      <trkpt lat="43.75454" lon="1.9755">
        <ele>216.91</ele>
        <time>2017-01-18T14:03:04Z</time>
      </trkpt>
      <trkpt lat="43.75471" lon="1.97536">
        <ele>216.43</ele>
        <time>2017-01-18T14:03:21Z</time>
      </trkpt>
      <trkpt lat="43.75486" lon="1.97524">
        <ele>216.43</ele>
        <time>2017-01-18T14:03:37Z</time>
      </trkpt>
      <trkpt lat="43.75488" lon="1.97522">
        <ele>215.47</ele>
        <time>2017-01-18T14:03:40Z</time>
      </trkpt>
      <trkpt lat="43.75506" lon="1.97511">
        <ele>212.59</ele>
        <time>2017-01-18T14:03:58Z</time>
      </trkpt>
      <trkpt lat="43.7552" lon="1.975">
        <ele>212.11</ele>
        <time>2017-01-18T14:04:14Z</time>
      </trkpt>
      <trkpt lat="43.75534" lon="1.97494">
        <ele>212.11</ele>
        <time>2017-01-18T14:04:27Z</time>
      </trkpt>
      <trkpt lat="43.75547" lon="1.97487">
        <ele>210.67</ele>
        <time>2017-01-18T14:04:39Z</time>
      </trkpt>
      <trkpt lat="43.75562" lon="1.97484">
        <ele>211.63</ele>
        <time>2017-01-18T14:04:52Z</time>
      </trkpt>
      <trkpt lat="43.75579" lon="1.9748">
        <ele>212.59</ele>
        <time>2017-01-18T14:05:06Z</time>
      </trkpt>
      <trkpt lat="43.75594" lon="1.97478">
        <ele>213.55</ele>
        <time>2017-01-18T14:05:20Z</time>
      </trkpt>
      <trkpt lat="43.75611" lon="1.97474">
        <ele>213.55</ele>
        <time>2017-01-18T14:05:33Z</time>
      </trkpt>
      <trkpt lat="43.75625" lon="1.97471">
        <ele>211.63</ele>
        <time>2017-01-18T14:05:47Z</time>
      </trkpt>
      <trkpt lat="43.75642" lon="1.97468">
        <ele>210.67</ele>
        <time>2017-01-18T14:06:02Z</time>
      </trkpt>
      <trkpt lat="43.75659" lon="1.97466">
        <ele>209.22</ele>
        <time>2017-01-18T14:06:17Z</time>
      </trkpt>
      <trkpt lat="43.75674" lon="1.97467">
        <ele>210.19</ele>
        <time>2017-01-18T14:06:30Z</time>
      </trkpt>
      <trkpt lat="43.7569" lon="1.97467">
        <ele>211.15</ele>
        <time>2017-01-18T14:06:44Z</time>
      </trkpt>
      <trkpt lat="43.75706" lon="1.9747">
        <ele>209.22</ele>
        <time>2017-01-18T14:06:59Z</time>
      </trkpt>
      <trkpt lat="43.75721" lon="1.97471">
        <ele>208.26</ele>
        <time>2017-01-18T14:07:13Z</time>
      </trkpt>
      <trkpt lat="43.75733" lon="1.97472">
        <ele>206.82</ele>
        <time>2017-01-18T14:07:25Z</time>
      </trkpt>
      <trkpt lat="43.75746" lon="1.97474">
        <ele>202.98</ele>
        <time>2017-01-18T14:07:39Z</time>
      </trkpt>
      <trkpt lat="43.75757" lon="1.97463">
        <ele>199.13</ele>
        <time>2017-01-18T14:07:52Z</time>
      </trkpt>
      <trkpt lat="43.75757" lon="1.97451">
        <ele>199.61</ele>
        <time>2017-01-18T14:08:01Z</time>
      </trkpt>
      <trkpt lat="43.75755" lon="1.97433">
        <ele>200.09</ele>
        <time>2017-01-18T14:08:15Z</time>
      </trkpt>
      <trkpt lat="43.75753" lon="1.97413">
        <ele>201.53</ele>
        <time>2017-01-18T14:08:30Z</time>
      </trkpt>
      <trkpt lat="43.75748" lon="1.97398">
        <ele>199.13</ele>
        <time>2017-01-18T14:08:42Z</time>
      </trkpt>
      <trkpt lat="43.75747" lon="1.97395">
        <ele>199.13</ele>
        <time>2017-01-18T14:08:44Z</time>
      </trkpt>
      <trkpt lat="43.7575" lon="1.97382">
        <ele>197.69</ele>
        <time>2017-01-18T14:08:53Z</time>
      </trkpt>
      <trkpt lat="43.7576" lon="1.97368">
        <ele>195.77</ele>
        <time>2017-01-18T14:09:09Z</time>
      </trkpt>
      <trkpt lat="43.7576" lon="1.97366">
        <ele>195.77</ele>
        <time>2017-01-18T14:09:10Z</time>
      </trkpt>
      <trkpt lat="43.7576" lon="1.97358">
        <ele>194.32</ele>
        <time>2017-01-18T14:09:15Z</time>
      </trkpt>
      <trkpt lat="43.75761" lon="1.97343">
        <ele>192.88</ele>
        <time>2017-01-18T14:09:30Z</time>
      </trkpt>
      <trkpt lat="43.75763" lon="1.97343">
        <ele>190.96</ele>
        <time>2017-01-18T14:09:53Z</time>
      </trkpt>
      <trkpt lat="43.75765" lon="1.97342">
        <ele>195.77</ele>
        <time>2017-01-18T14:10:19Z</time>
      </trkpt>
      <trkpt lat="43.75763" lon="1.97343">
        <ele>201.53</ele>
        <time>2017-01-18T14:10:47Z</time>
      </trkpt>
      <trkpt lat="43.75763" lon="1.9734">
        <ele>206.34</ele>
        <time>2017-01-18T14:11:16Z</time>
      </trkpt>
      <trkpt lat="43.75765" lon="1.97331">
        <ele>206.34</ele>
        <time>2017-01-18T14:11:31Z</time>
      </trkpt>
      <trkpt lat="43.75767" lon="1.97322">
        <ele>204.42</ele>
        <time>2017-01-18T14:11:38Z</time>
      </trkpt>
      <trkpt lat="43.75773" lon="1.97321">
        <ele>204.9</ele>
        <time>2017-01-18T14:11:43Z</time>
      </trkpt>
      <trkpt lat="43.75774" lon="1.97312">
        <ele>204.9</ele>
        <time>2017-01-18T14:11:50Z</time>
      </trkpt>
      <trkpt lat="43.75768" lon="1.97294">
        <ele>204.9</ele>
        <time>2017-01-18T14:12:02Z</time>
      </trkpt>
      <trkpt lat="43.75757" lon="1.97276">
        <ele>202.49</ele>
        <time>2017-01-18T14:12:15Z</time>
      </trkpt>
      <trkpt lat="43.75748" lon="1.97269">
        <ele>204.42</ele>
        <time>2017-01-18T14:12:25Z</time>
      </trkpt>
      <trkpt lat="43.75747" lon="1.97267">
        <ele>203.94</ele>
        <time>2017-01-18T14:12:27Z</time>
      </trkpt>
      <trkpt lat="43.75746" lon="1.97261">
        <ele>202.49</ele>
        <time>2017-01-18T14:12:31Z</time>
      </trkpt>
      <trkpt lat="43.75746" lon="1.97256">
        <ele>201.53</ele>
        <time>2017-01-18T14:12:34Z</time>
      </trkpt>
      <trkpt lat="43.75743" lon="1.97246">
        <ele>200.09</ele>
        <time>2017-01-18T14:12:41Z</time>
      </trkpt>
      <trkpt lat="43.75742" lon="1.97226">
        <ele>199.61</ele>
        <time>2017-01-18T14:12:54Z</time>
      </trkpt>
      <trkpt lat="43.75734" lon="1.97204">
        <ele>197.69</ele>
        <time>2017-01-18T14:13:08Z</time>
      </trkpt>
      <trkpt lat="43.75723" lon="1.97185">
        <ele>197.21</ele>
        <time>2017-01-18T14:13:23Z</time>
      </trkpt>
      <trkpt lat="43.75721" lon="1.97177">
        <ele>196.73</ele>
        <time>2017-01-18T14:13:29Z</time>
      </trkpt>
      <trkpt lat="43.75724" lon="1.97173">
        <ele>195.77</ele>
        <time>2017-01-18T14:13:34Z</time>
      </trkpt>
      <trkpt lat="43.7574" lon="1.97156">
        <ele>194.8</ele>
        <time>2017-01-18T14:13:51Z</time>
      </trkpt>
      <trkpt lat="43.75756" lon="1.9715">
        <ele>193.84</ele>
        <time>2017-01-18T14:14:05Z</time>
      </trkpt>
      <trkpt lat="43.75773" lon="1.97145">
        <ele>191.44</ele>
        <time>2017-01-18T14:14:21Z</time>
      </trkpt>
      <trkpt lat="43.75789" lon="1.97142">
        <ele>190.48</ele>
        <time>2017-01-18T14:14:36Z</time>
      </trkpt>
      <trkpt lat="43.75792" lon="1.97135">
        <ele>190.48</ele>
        <time>2017-01-18T14:14:42Z</time>
      </trkpt>
      <trkpt lat="43.75793" lon="1.9713">
        <ele>190.48</ele>
        <time>2017-01-18T14:14:45Z</time>
      </trkpt>
      <trkpt lat="43.75793" lon="1.97121">
        <ele>190.48</ele>
        <time>2017-01-18T14:14:51Z</time>
      </trkpt>
      <trkpt lat="43.75797" lon="1.9712">
        <ele>190</ele>
        <time>2017-01-18T14:14:55Z</time>
      </trkpt>
      <trkpt lat="43.75814" lon="1.97123">
        <ele>188.08</ele>
        <time>2017-01-18T14:15:11Z</time>
      </trkpt>
      <trkpt lat="43.75818" lon="1.97123">
        <ele>188.56</ele>
        <time>2017-01-18T14:15:14Z</time>
      </trkpt>
      <trkpt lat="43.75824" lon="1.97123">
        <ele>190.48</ele>
        <time>2017-01-18T14:15:19Z</time>
      </trkpt>
      <trkpt lat="43.75843" lon="1.97121">
        <ele>190</ele>
        <time>2017-01-18T14:15:35Z</time>
      </trkpt>
      <trkpt lat="43.75848" lon="1.97117">
        <ele>189.04</ele>
        <time>2017-01-18T14:15:43Z</time>
      </trkpt>
      <trkpt lat="43.75847" lon="1.97102">
        <ele>190</ele>
        <time>2017-01-18T14:15:51Z</time>
      </trkpt>
      <trkpt lat="43.75847" lon="1.97094">
        <ele>190.48</ele>
        <time>2017-01-18T14:15:56Z</time>
      </trkpt>
      <trkpt lat="43.75846" lon="1.97084">
        <ele>190.48</ele>
        <time>2017-01-18T14:16:02Z</time>
      </trkpt>
      <trkpt lat="43.75843" lon="1.97075">
        <ele>189.52</ele>
        <time>2017-01-18T14:16:08Z</time>
      </trkpt>
      <trkpt lat="43.75837" lon="1.97057">
        <ele>188.56</ele>
        <time>2017-01-18T14:16:23Z</time>
      </trkpt>
      <trkpt lat="43.75833" lon="1.97055">
        <ele>186.63</ele>
        <time>2017-01-18T14:16:40Z</time>
      </trkpt>
      <trkpt lat="43.75832" lon="1.97058">
        <ele>183.75</ele>
        <time>2017-01-18T14:17:07Z</time>
      </trkpt>
    </trkseg>
  </trk>
</gpx>